<?xml version='1.0' encoding='UTF-8'?><gpx version="1.1" creator="JPX - https://github.com/jenetics/jpx" xmlns="http://www.topografix.com/GPX/1/1"><trk><trkseg><trkpt lat="49.060693713080184" lon="2.504989757292047"><ele>118.0</ele><time>2026-03-26T17:29:43Z</time></trkpt><trkpt lat="49.06067905045322" lon="2.5048713864231913"><ele>118.00000000000001</ele><time>2026-03-26T17:29:45Z</time></trkpt><trkpt lat="49.06064755278652" lon="2.5047043082464073"><ele>118.00000000000001</ele><time>2026-03-26T17:29:47Z</time></trkpt><trkpt lat="49.060613756814526" lon="2.504622577873158"><ele>118.0</ele><time>2026-03-26T17:29:48Z</time></trkpt><trkpt lat="49.06055313437042" lon="2.504482303251411"><ele>118.0</ele><time>2026-03-26T17:29:50Z</time></trkpt><trkpt lat="49.06045900482265" lon="2.5043776330772274"><ele>117.80000000000001</ele><time>2026-03-26T17:29:52Z</time></trkpt><trkpt lat="49.06038310941769" lon="2.5042496074651095"><ele>117.60000000000001</ele><time>2026-03-26T17:29:54Z</time></trkpt><trkpt lat="49.06034223557176" lon="2.5041750845079056"><ele>117.39999999999999</ele><time>2026-03-26T17:29:55Z</time></trkpt><trkpt lat="49.06026886314419" lon="2.50403307416124"><ele>117.19999999999999</ele><time>2026-03-26T17:29:57Z</time></trkpt><trkpt lat="49.060182441887896" lon="2.5039439349984263"><ele>117.0</ele><time>2026-03-26T17:29:59Z</time></trkpt><trkpt lat="49.060060948959524" lon="2.5039183605782207"><ele>116.5</ele><time>2026-03-26T17:30:01Z</time></trkpt><trkpt lat="49.05994002678833" lon="2.5038921451311866"><ele>116.0</ele><time>2026-03-26T17:30:03Z</time></trkpt><trkpt lat="49.05981939062233" lon="2.5038968803084303"><ele>115.5</ele><time>2026-03-26T17:30:05Z</time></trkpt><trkpt lat="49.05970248563783" lon="2.503886143247938"><ele>115.0</ele><time>2026-03-26T17:30:07Z</time></trkpt><trkpt lat="49.05961052832119" lon="2.5038392914483563"><ele>115.0</ele><time>2026-03-26T17:30:09Z</time></trkpt><trkpt lat="49.05961631328964" lon="2.5036985361464814"><ele>115.0</ele><time>2026-03-26T17:30:10Z</time></trkpt><trkpt lat="49.059595616305664" lon="2.5035249806648903"><ele>115.0</ele><time>2026-03-26T17:30:12Z</time></trkpt><trkpt lat="49.05959047950264" lon="2.503393088285666"><ele>115.0</ele><time>2026-03-26T17:30:14Z</time></trkpt><trkpt lat="49.059588054395626" lon="2.503276676307437"><ele>115.0</ele><time>2026-03-26T17:30:45Z</time></trkpt><trkpt lat="49.059480900204186" lon="2.5031738216250363"><ele>115.00000000000001</ele><time>2026-03-26T17:30:48Z</time></trkpt><trkpt lat="49.05936581933158" lon="2.5031183926991076"><ele>115.0</ele><time>2026-03-26T17:30:50Z</time></trkpt><trkpt lat="49.05927542574458" lon="2.503017065183512"><ele>115.0</ele><time>2026-03-26T17:30:51.999Z</time></trkpt><trkpt lat="49.05921655696868" lon="2.502956110426613"><ele>115.0</ele><time>2026-03-26T17:30:52.999Z</time></trkpt><trkpt lat="49.05915550159155" lon="2.5028918124897177"><ele>115.00000000000001</ele><time>2026-03-26T17:30:53.999Z</time></trkpt><trkpt lat="49.05909899751122" lon="2.5028323075635295"><ele>115.0</ele><time>2026-03-26T17:30:54.999Z</time></trkpt><trkpt lat="49.05902732147741" lon="2.5027771346600387"><ele>115.00000000000001</ele><time>2026-03-26T17:30:55.999Z</time></trkpt><trkpt lat="49.0589495184693" lon="2.502700461944703"><ele>115.0</ele><time>2026-03-26T17:30:56.999Z</time></trkpt><trkpt lat="49.05887328215451" lon="2.5026151984569283"><ele>115.0</ele><time>2026-03-26T17:30:57.999Z</time></trkpt><trkpt lat="49.05880027885444" lon="2.5025325238551863"><ele>115.0</ele><time>2026-03-26T17:30:58.999Z</time></trkpt><trkpt lat="49.05873460215988" lon="2.502460050508528"><ele>115.00000000000001</ele><time>2026-03-26T17:30:59.999Z</time></trkpt><trkpt lat="49.05866684954065" lon="2.502391628732106"><ele>115.0</ele><time>2026-03-26T17:31:00.999Z</time></trkpt><trkpt lat="49.05860309523904" lon="2.502321970897123"><ele>115.00000000000001</ele><time>2026-03-26T17:31:01.999Z</time></trkpt><trkpt lat="49.05854122071743" lon="2.5022555486246114"><ele>115.0</ele><time>2026-03-26T17:31:02.999Z</time></trkpt><trkpt lat="49.05847867319793" lon="2.5021933856959935"><ele>115.0</ele><time>2026-03-26T17:31:03.999Z</time></trkpt><trkpt lat="49.05841522629899" lon="2.502136908538413"><ele>115.0</ele><time>2026-03-26T17:31:04.999Z</time></trkpt><trkpt lat="49.058360370113384" lon="2.5020763917682523"><ele>115.00000000000001</ele><time>2026-03-26T17:31:05.999Z</time></trkpt><trkpt lat="49.058305968585366" lon="2.5020211097153906"><ele>115.0</ele><time>2026-03-26T17:31:06.999Z</time></trkpt><trkpt lat="49.0582242749489" lon="2.5019228124277206"><ele>114.83333333333334</ele><time>2026-03-26T17:31:08.999Z</time></trkpt><trkpt lat="49.05813464176843" lon="2.5018295719727157"><ele>114.66666666666667</ele><time>2026-03-26T17:31:10.999Z</time></trkpt><trkpt lat="49.05808298637353" lon="2.501772513657005"><ele>114.5</ele><time>2026-03-26T17:31:11.999Z</time></trkpt><trkpt lat="49.058028016886226" lon="2.501720345510088"><ele>114.33333333333334</ele><time>2026-03-26T17:31:12.999Z</time></trkpt><trkpt lat="49.05797459212699" lon="2.501665976306467"><ele>114.16666666666667</ele><time>2026-03-26T17:31:13.999Z</time></trkpt><trkpt lat="49.057887259548245" lon="2.5015784067978655"><ele>114.0</ele><time>2026-03-26T17:31:15.999Z</time></trkpt><trkpt lat="49.05781389132532" lon="2.5014943437691852"><ele>114.0</ele><time>2026-03-26T17:31:17.999Z</time></trkpt><trkpt lat="49.057758769836646" lon="2.5013552466852214"><ele>114.0</ele><time>2026-03-26T17:31:19.999Z</time></trkpt><trkpt lat="49.057710040654555" lon="2.5011691683459993"><ele>114.0</ele><time>2026-03-26T17:31:21.999Z</time></trkpt><trkpt lat="49.05766994099136" lon="2.501016186861396"><ele>114.0</ele><time>2026-03-26T17:31:23.999Z</time></trkpt><trkpt lat="49.057654122238525" lon="2.50089252100455"><ele>114.0</ele><time>2026-03-26T17:31:25.999Z</time></trkpt><trkpt lat="49.057630730823846" lon="2.5008017678541106"><ele>114.0</ele><time>2026-03-26T17:31:32.999Z</time></trkpt><trkpt lat="49.05758600014802" lon="2.500684489477644"><ele>114.0</ele><time>2026-03-26T17:31:34.999Z</time></trkpt><trkpt lat="49.05751013110941" lon="2.5006154436946435"><ele>114.0</ele><time>2026-03-26T17:31:37.999Z</time></trkpt><trkpt lat="49.05744276608056" lon="2.5006292462357296"><ele>114.0</ele><time>2026-03-26T17:31:39.999Z</time></trkpt><trkpt lat="49.05740607673305" lon="2.5004984685650844"><ele>114.0</ele><time>2026-03-26T17:31:40.999Z</time></trkpt><trkpt lat="49.057336088666695" lon="2.5006755879238436"><ele>114.16666666666667</ele><time>2026-03-26T17:31:42.999Z</time></trkpt><trkpt lat="49.057261157012505" lon="2.500689827507684"><ele>114.33333333333334</ele><time>2026-03-26T17:31:45.001Z</time></trkpt><trkpt lat="49.057179380634" lon="2.500715256630961"><ele>114.5</ele><time>2026-03-26T17:31:47.001Z</time></trkpt><trkpt lat="49.057107251438765" lon="2.5007342120243576"><ele>114.66666666666667</ele><time>2026-03-26T17:31:49.001Z</time></trkpt><trkpt lat="49.05702460837903" lon="2.500758889459042"><ele>114.83333333333334</ele><time>2026-03-26T17:31:51.001Z</time></trkpt><trkpt lat="49.056957996596495" lon="2.5007744595256054"><ele>115.0</ele><time>2026-03-26T17:31:53.001Z</time></trkpt><trkpt lat="49.05687879027549" lon="2.500795880812204"><ele>115.0</ele><time>2026-03-26T17:31:56Z</time></trkpt><trkpt lat="49.05681724070757" lon="2.5008215405652123"><ele>115.0</ele><time>2026-03-26T17:31:59Z</time></trkpt><trkpt lat="49.05672354392965" lon="2.5008437314157113"><ele>115.0</ele><time>2026-03-26T17:32:18Z</time></trkpt><trkpt lat="49.05662659155901" lon="2.5008691014810474"><ele>115.0</ele><time>2026-03-26T17:32:20Z</time></trkpt><trkpt lat="49.0565169915481" lon="2.500895349978267"><ele>115.0</ele><time>2026-03-26T17:32:22Z</time></trkpt><trkpt lat="49.056418511582386" lon="2.500926249334878"><ele>115.6</ele><time>2026-03-26T17:32:24Z</time></trkpt><trkpt lat="49.05632159521889" lon="2.500951689654509"><ele>116.2</ele><time>2026-03-26T17:32:26Z</time></trkpt><trkpt lat="49.0561993607671" lon="2.5009863130582115"><ele>116.80000000000001</ele><time>2026-03-26T17:32:28Z</time></trkpt><trkpt lat="49.05612487646895" lon="2.501006050062462"><ele>117.4</ele><time>2026-03-26T17:32:29Z</time></trkpt><trkpt lat="49.05603809865565" lon="2.501031532269012"><ele>118.0</ele><time>2026-03-26T17:32:30Z</time></trkpt><trkpt lat="49.05595507829001" lon="2.5010596218726735"><ele>118.00000000000001</ele><time>2026-03-26T17:32:31Z</time></trkpt><trkpt lat="49.055875096977694" lon="2.5010587649319356"><ele>118.0</ele><time>2026-03-26T17:32:32Z</time></trkpt><trkpt lat="49.05579979996233" lon="2.501079337523839"><ele>118.0</ele><time>2026-03-26T17:32:33Z</time></trkpt><trkpt lat="49.05572207383356" lon="2.501100527726832"><ele>118.0</ele><time>2026-03-26T17:32:34Z</time></trkpt><trkpt lat="49.055643039770914" lon="2.501122074510652"><ele>118.00000000000001</ele><time>2026-03-26T17:32:35Z</time></trkpt><trkpt lat="49.05557085309614" lon="2.5011417544653973"><ele>118.0</ele><time>2026-03-26T17:32:36Z</time></trkpt><trkpt lat="49.05550969479517" lon="2.5011839815311956"><ele>118.33333333333334</ele><time>2026-03-26T17:32:37Z</time></trkpt><trkpt lat="49.05538214171301" lon="2.501217743032349"><ele>118.66666666666667</ele><time>2026-03-26T17:32:39Z</time></trkpt><trkpt lat="49.05531205296313" lon="2.501237318762865"><ele>119.0</ele><time>2026-03-26T17:32:40Z</time></trkpt><trkpt lat="49.05523796363375" lon="2.501256488885577"><ele>119.33333333333334</ele><time>2026-03-26T17:32:41Z</time></trkpt><trkpt lat="49.0551554063611" lon="2.501252410419048"><ele>119.66666666666667</ele><time>2026-03-26T17:32:42Z</time></trkpt><trkpt lat="49.05507529702529" lon="2.5012715595003514"><ele>120.0</ele><time>2026-03-26T17:32:43Z</time></trkpt><trkpt lat="49.05499370105664" lon="2.501293519328462"><ele>119.66666666666667</ele><time>2026-03-26T17:32:44Z</time></trkpt><trkpt lat="49.05490915124517" lon="2.5013177978787255"><ele>119.33333333333334</ele><time>2026-03-26T17:32:45Z</time></trkpt><trkpt lat="49.05482673456983" lon="2.5013649114263377"><ele>119.0</ele><time>2026-03-26T17:32:46Z</time></trkpt><trkpt lat="49.0547416184654" lon="2.501390669288627"><ele>118.66666666666667</ele><time>2026-03-26T17:32:47Z</time></trkpt><trkpt lat="49.0546546529423" lon="2.501389841289403"><ele>118.33333333333334</ele><time>2026-03-26T17:32:48Z</time></trkpt><trkpt lat="49.05457093082565" lon="2.5014284008294934"><ele>118.0</ele><time>2026-03-26T17:32:49Z</time></trkpt><trkpt lat="49.05448784412453" lon="2.50145030186179"><ele>118.00000000000001</ele><time>2026-03-26T17:32:50Z</time></trkpt><trkpt lat="49.054414184254014" lon="2.501468944533298"><ele>118.0</ele><time>2026-03-26T17:32:51Z</time></trkpt><trkpt lat="49.054342370146195" lon="2.5014911232598913"><ele>118.0</ele><time>2026-03-26T17:32:52Z</time></trkpt><trkpt lat="49.05426582228457" lon="2.501510449103484"><ele>118.0</ele><time>2026-03-26T17:32:53Z</time></trkpt><trkpt lat="49.05418837068215" lon="2.5015285965768554"><ele>118.00000000000001</ele><time>2026-03-26T17:32:54Z</time></trkpt><trkpt lat="49.05410636481041" lon="2.501547874362085"><ele>118.0</ele><time>2026-03-26T17:32:54.999Z</time></trkpt><trkpt lat="49.054019930156514" lon="2.5015701307727687"><ele>117.16666666666667</ele><time>2026-03-26T17:32:55.999Z</time></trkpt><trkpt lat="49.053931817816135" lon="2.5015972959610244"><ele>116.33333333333334</ele><time>2026-03-26T17:32:56.999Z</time></trkpt><trkpt lat="49.05384566685601" lon="2.5016235985902124"><ele>115.5</ele><time>2026-03-26T17:32:57.999Z</time></trkpt><trkpt lat="49.053759707849146" lon="2.501646802803628"><ele>114.66666666666666</ele><time>2026-03-26T17:32:58.999Z</time></trkpt><trkpt lat="49.053677951780706" lon="2.501672931299319"><ele>113.83333333333333</ele><time>2026-03-26T17:32:59.999Z</time></trkpt><trkpt lat="49.05360324100144" lon="2.501694824082854"><ele>113.0</ele><time>2026-03-26T17:33:00.999Z</time></trkpt><trkpt lat="49.05353858692793" lon="2.5017143253787135"><ele>113.0</ele><time>2026-03-26T17:33:01.999Z</time></trkpt><trkpt lat="49.053474794056946" lon="2.501730451088475"><ele>113.00000000000001</ele><time>2026-03-26T17:33:02.999Z</time></trkpt><trkpt lat="49.053409656224055" lon="2.5017495712625055"><ele>113.00000000000001</ele><time>2026-03-26T17:33:03.999Z</time></trkpt><trkpt lat="49.05328907070812" lon="2.5017860703502737"><ele>113.0</ele><time>2026-03-26T17:33:05.999Z</time></trkpt><trkpt lat="49.05317951959982" lon="2.5018177831460733"><ele>113.0</ele><time>2026-03-26T17:33:07.999Z</time></trkpt><trkpt lat="49.05308011010377" lon="2.5017907184737345"><ele>112.49999999999999</ele><time>2026-03-26T17:33:09.999Z</time></trkpt><trkpt lat="49.05301132294197" lon="2.5016885005784784"><ele>112.0</ele><time>2026-03-26T17:33:11.999Z</time></trkpt><trkpt lat="49.05294948154109" lon="2.501553973194184"><ele>111.5</ele><time>2026-03-26T17:33:13.999Z</time></trkpt><trkpt lat="49.05287219959006" lon="2.501545283303654"><ele>111.0</ele><time>2026-03-26T17:33:14.999Z</time></trkpt><trkpt lat="49.05281464928717" lon="2.501616483385696"><ele>110.49999999999999</ele><time>2026-03-26T17:33:15.999Z</time></trkpt><trkpt lat="49.05277458105302" lon="2.50169154213824"><ele>110.0</ele><time>2026-03-26T17:33:16.999Z</time></trkpt><trkpt lat="49.05275714064437" lon="2.50179204507245"><ele>109.99999999999999</ele><time>2026-03-26T17:33:17.999Z</time></trkpt><trkpt lat="49.05275447979656" lon="2.501903252816818"><ele>110.0</ele><time>2026-03-26T17:33:18.999Z</time></trkpt><trkpt lat="49.05265404115912" lon="2.501939869672545"><ele>110.0</ele><time>2026-03-26T17:33:19.999Z</time></trkpt><trkpt lat="49.05258707468548" lon="2.5019599584217707"><ele>110.0</ele><time>2026-03-26T17:33:20.999Z</time></trkpt><trkpt lat="49.05251610758564" lon="2.5019818093837096"><ele>109.99999999999999</ele><time>2026-03-26T17:33:21.999Z</time></trkpt><trkpt lat="49.05242773744113" lon="2.5020025053787442"><ele>110.0</ele><time>2026-03-26T17:33:22.999Z</time></trkpt><trkpt lat="49.05233690181548" lon="2.5020249188733756"><ele>109.16666666666666</ele><time>2026-03-26T17:33:23.999Z</time></trkpt><trkpt lat="49.052241586372034" lon="2.502062880419665"><ele>108.33333333333333</ele><time>2026-03-26T17:33:24.999Z</time></trkpt><trkpt lat="49.05214589231014" lon="2.5020877916041417"><ele>107.5</ele><time>2026-03-26T17:33:25.999Z</time></trkpt><trkpt lat="49.0520551745843" lon="2.502112373829547"><ele>106.66666666666666</ele><time>2026-03-26T17:33:26.999Z</time></trkpt><trkpt lat="49.051974144468595" lon="2.502135179642017"><ele>105.83333333333333</ele><time>2026-03-26T17:33:27.999Z</time></trkpt><trkpt lat="49.051897091016855" lon="2.5021559740866217"><ele>105.0</ele><time>2026-03-26T17:33:28.999Z</time></trkpt><trkpt lat="49.051818160771944" lon="2.5021753059719454"><ele>104.83333333333333</ele><time>2026-03-26T17:33:29.999Z</time></trkpt><trkpt lat="49.05174442564712" lon="2.502194559161583"><ele>104.66666666666666</ele><time>2026-03-26T17:33:30.999Z</time></trkpt><trkpt lat="49.051669455168636" lon="2.5022146026765664"><ele>104.5</ele><time>2026-03-26T17:33:31.999Z</time></trkpt><trkpt lat="49.05160337152994" lon="2.5022360658176517"><ele>104.33333333333333</ele><time>2026-03-26T17:33:32.999Z</time></trkpt><trkpt lat="49.051494971502386" lon="2.5022846253356197"><ele>104.16666666666666</ele><time>2026-03-26T17:33:34.999Z</time></trkpt><trkpt lat="49.051419273997794" lon="2.5023230184227523"><ele>104.0</ele><time>2026-03-26T17:33:36.999Z</time></trkpt><trkpt lat="49.05132547110829" lon="2.5023693446375557"><ele>103.4</ele><time>2026-03-26T17:33:58.001Z</time></trkpt><trkpt lat="49.051228496369525" lon="2.5023771191033477"><ele>102.80000000000001</ele><time>2026-03-26T17:34:00.001Z</time></trkpt><trkpt lat="49.05112289877944" lon="2.502409551784335"><ele>102.19999999999999</ele><time>2026-03-26T17:34:02.001Z</time></trkpt><trkpt lat="49.05102715629655" lon="2.5024589213755366"><ele>101.6</ele><time>2026-03-26T17:34:04.001Z</time></trkpt><trkpt lat="49.050898298893024" lon="2.5024884622776393"><ele>101.0</ele><time>2026-03-26T17:34:06.001Z</time></trkpt><trkpt lat="49.05082239871091" lon="2.502507809828408"><ele>100.99999999999999</ele><time>2026-03-26T17:34:07Z</time></trkpt><trkpt lat="49.05074294177408" lon="2.5025216677069184"><ele>101.0</ele><time>2026-03-26T17:34:08Z</time></trkpt><trkpt lat="49.050675991916144" lon="2.502540995586015"><ele>101.0</ele><time>2026-03-26T17:34:09Z</time></trkpt><trkpt lat="49.05061205336433" lon="2.5025514528141333"><ele>101.0</ele><time>2026-03-26T17:34:10Z</time></trkpt><trkpt lat="49.05049420707219" lon="2.502582505181292"><ele>100.99999999999999</ele><time>2026-03-26T17:34:12Z</time></trkpt><trkpt lat="49.05042741218459" lon="2.502598078161685"><ele>101.0</ele><time>2026-03-26T17:34:13Z</time></trkpt><trkpt lat="49.050313388882664" lon="2.502630670223508"><ele>101.0</ele><time>2026-03-26T17:34:15Z</time></trkpt><trkpt lat="49.05025772683596" lon="2.5026884879712643"><ele>101.0</ele><time>2026-03-26T17:34:16Z</time></trkpt><trkpt lat="49.05020682484286" lon="2.5027669852510988"><ele>101.0</ele><time>2026-03-26T17:34:17Z</time></trkpt><trkpt lat="49.05015303405197" lon="2.502858143403385"><ele>101.0</ele><time>2026-03-26T17:34:18Z</time></trkpt><trkpt lat="49.050107909643124" lon="2.5029362887794204"><ele>101.0</ele><time>2026-03-26T17:34:19Z</time></trkpt><trkpt lat="49.05005562621646" lon="2.5030288583759717"><ele>101.0</ele><time>2026-03-26T17:34:20Z</time></trkpt><trkpt lat="49.05000298970304" lon="2.5031208702744836"><ele>101.0</ele><time>2026-03-26T17:34:21Z</time></trkpt><trkpt lat="49.04994866227402" lon="2.5032119625037206"><ele>100.83333333333333</ele><time>2026-03-26T17:34:22Z</time></trkpt><trkpt lat="49.04990193816614" lon="2.5032890969363866"><ele>100.66666666666666</ele><time>2026-03-26T17:34:23Z</time></trkpt><trkpt lat="49.04984674732851" lon="2.5033864456292267"><ele>100.5</ele><time>2026-03-26T17:34:24Z</time></trkpt><trkpt lat="49.049793796884686" lon="2.5034774338471664"><ele>100.33333333333334</ele><time>2026-03-26T17:34:25Z</time></trkpt><trkpt lat="49.049741312129925" lon="2.5035683197029255"><ele>100.16666666666667</ele><time>2026-03-26T17:34:26Z</time></trkpt><trkpt lat="49.0496894346236" lon="2.5036578825776474"><ele>100.0</ele><time>2026-03-26T17:34:27Z</time></trkpt><trkpt lat="49.0496373738539" lon="2.503753453808187"><ele>100.83333333333334</ele><time>2026-03-26T17:34:28Z</time></trkpt><trkpt lat="49.04957277962413" lon="2.5038329684385165"><ele>101.66666666666667</ele><time>2026-03-26T17:34:29Z</time></trkpt><trkpt lat="49.049516711502655" lon="2.5039298348439427"><ele>102.5</ele><time>2026-03-26T17:34:30Z</time></trkpt><trkpt lat="49.04945962829286" lon="2.5040284550193075"><ele>103.33333333333334</ele><time>2026-03-26T17:34:31Z</time></trkpt><trkpt lat="49.04940175018174" lon="2.5041284484458135"><ele>104.16666666666667</ele><time>2026-03-26T17:34:32Z</time></trkpt><trkpt lat="49.049353015266064" lon="2.504240664220044"><ele>105.0</ele><time>2026-03-26T17:34:33Z</time></trkpt><trkpt lat="49.049293383916236" lon="2.504338375874739"><ele>105.0</ele><time>2026-03-26T17:34:34Z</time></trkpt><trkpt lat="49.04924096650926" lon="2.504431867117334"><ele>105.0</ele><time>2026-03-26T17:34:35Z</time></trkpt><trkpt lat="49.0491916773973" lon="2.504519971451343"><ele>105.0</ele><time>2026-03-26T17:34:36Z</time></trkpt><trkpt lat="49.04913796103537" lon="2.504603708236558"><ele>105.0</ele><time>2026-03-26T17:34:37Z</time></trkpt><trkpt lat="49.049089514514755" lon="2.504679911888302"><ele>105.0</ele><time>2026-03-26T17:34:38Z</time></trkpt><trkpt lat="49.04904875332449" lon="2.5047564229237342"><ele>105.0</ele><time>2026-03-26T17:34:39Z</time></trkpt><trkpt lat="49.04897489698016" lon="2.5048839036025123"><ele>106.2</ele><time>2026-03-26T17:34:41Z</time></trkpt><trkpt lat="49.048916070771256" lon="2.5049812472557162"><ele>107.4</ele><time>2026-03-26T17:34:43Z</time></trkpt><trkpt lat="49.04886917185773" lon="2.5050737911671823"><ele>108.6</ele><time>2026-03-26T17:34:46Z</time></trkpt><trkpt lat="49.04880904029636" lon="2.5051394147818993"><ele>109.8</ele><time>2026-03-26T17:35:09.999Z</time></trkpt><trkpt lat="49.04875198278952" lon="2.5052649100138176"><ele>111.0</ele><time>2026-03-26T17:35:11.999Z</time></trkpt><trkpt lat="49.04866920281206" lon="2.505400359768604"><ele>111.16666666666667</ele><time>2026-03-26T17:35:13.999Z</time></trkpt><trkpt lat="49.04862139362251" lon="2.5054872578416187"><ele>111.33333333333334</ele><time>2026-03-26T17:35:14.999Z</time></trkpt><trkpt lat="49.04857227228138" lon="2.5055624310067586"><ele>111.5</ele><time>2026-03-26T17:35:15.999Z</time></trkpt><trkpt lat="49.04852434710758" lon="2.5056484609764973"><ele>111.66666666666667</ele><time>2026-03-26T17:35:16.999Z</time></trkpt><trkpt lat="49.04847781930416" lon="2.5057295457146243"><ele>111.83333333333334</ele><time>2026-03-26T17:35:17.999Z</time></trkpt><trkpt lat="49.048402134317755" lon="2.5058602741644385"><ele>112.0</ele><time>2026-03-26T17:35:19.999Z</time></trkpt><trkpt lat="49.04832835455734" lon="2.5059694721109014"><ele>112.00000000000001</ele><time>2026-03-26T17:35:21.999Z</time></trkpt><trkpt lat="49.04826482945806" lon="2.506060742848126"><ele>112.0</ele><time>2026-03-26T17:35:23.999Z</time></trkpt><trkpt lat="49.0482173788071" lon="2.5061238996303574"><ele>112.0</ele><time>2026-03-26T17:35:24.999Z</time></trkpt><trkpt lat="49.048162975978364" lon="2.5062035301525447"><ele>112.0</ele><time>2026-03-26T17:35:25.999Z</time></trkpt><trkpt lat="49.04810345602155" lon="2.506291508122482"><ele>112.00000000000001</ele><time>2026-03-26T17:35:26.999Z</time></trkpt><trkpt lat="49.0480372958959" lon="2.5063876021720692"><ele>112.0</ele><time>2026-03-26T17:35:27.999Z</time></trkpt><trkpt lat="49.04796853706379" lon="2.5064865513019625"><ele>111.8</ele><time>2026-03-26T17:35:28.999Z</time></trkpt><trkpt lat="49.04790154506022" lon="2.5065831165331147"><ele>111.6</ele><time>2026-03-26T17:35:29.999Z</time></trkpt><trkpt lat="49.0478332566982" lon="2.5066793324376944"><ele>111.39999999999999</ele><time>2026-03-26T17:35:30.999Z</time></trkpt><trkpt lat="49.04776529801989" lon="2.5067689746417687"><ele>111.19999999999999</ele><time>2026-03-26T17:35:31.999Z</time></trkpt><trkpt lat="49.04769624578157" lon="2.506866077579361"><ele>111.0</ele><time>2026-03-26T17:35:32.999Z</time></trkpt><trkpt lat="49.04762885702085" lon="2.5069601459756146"><ele>111.0</ele><time>2026-03-26T17:35:33.999Z</time></trkpt><trkpt lat="49.047559468905064" lon="2.507059035542481"><ele>111.0</ele><time>2026-03-26T17:35:34.999Z</time></trkpt><trkpt lat="49.047482034067166" lon="2.5071556573151312"><ele>111.0</ele><time>2026-03-26T17:35:35.999Z</time></trkpt><trkpt lat="49.04740925806505" lon="2.507257342191308"><ele>111.0</ele><time>2026-03-26T17:35:36.999Z</time></trkpt><trkpt lat="49.04733872796176" lon="2.507351724643377"><ele>111.0</ele><time>2026-03-26T17:35:37.999Z</time></trkpt><trkpt lat="49.0472696077675" lon="2.507451827369759"><ele>111.19999999999999</ele><time>2026-03-26T17:35:38.999Z</time></trkpt><trkpt lat="49.04719846881651" lon="2.507552520185317"><ele>111.39999999999999</ele><time>2026-03-26T17:35:39.999Z</time></trkpt><trkpt lat="49.04712712141149" lon="2.5076477458580366"><ele>111.6</ele><time>2026-03-26T17:35:40.999Z</time></trkpt><trkpt lat="49.04705618433998" lon="2.507748847554127"><ele>111.8</ele><time>2026-03-26T17:35:41.999Z</time></trkpt><trkpt lat="49.04698790080053" lon="2.5078476011241264"><ele>112.0</ele><time>2026-03-26T17:35:42.999Z</time></trkpt><trkpt lat="49.04691758005983" lon="2.5079460261411803"><ele>111.6</ele><time>2026-03-26T17:35:43.999Z</time></trkpt><trkpt lat="49.04684343054584" lon="2.5080429834727553"><ele>111.19999999999999</ele><time>2026-03-26T17:35:44.999Z</time></trkpt><trkpt lat="49.04676938235141" lon="2.508141912428051"><ele>110.8</ele><time>2026-03-26T17:35:45.999Z</time></trkpt><trkpt lat="49.04669561085688" lon="2.5082388731646024"><ele>110.4</ele><time>2026-03-26T17:35:46.999Z</time></trkpt><trkpt lat="49.04662099225508" lon="2.508350010142844"><ele>110.0</ele><time>2026-03-26T17:35:47.999Z</time></trkpt><trkpt lat="49.04654894916609" lon="2.508449871171497"><ele>110.0</ele><time>2026-03-26T17:35:48.999Z</time></trkpt><trkpt lat="49.04647657183153" lon="2.5085520250318223"><ele>110.0</ele><time>2026-03-26T17:35:49.999Z</time></trkpt><trkpt lat="49.046404280100425" lon="2.5086594566448417"><ele>110.0</ele><time>2026-03-26T17:35:50.999Z</time></trkpt><trkpt lat="49.04632449249244" lon="2.5087662686920957"><ele>110.0</ele><time>2026-03-26T17:35:51.999Z</time></trkpt><trkpt lat="49.04625320381681" lon="2.5088702445164235"><ele>110.0</ele><time>2026-03-26T17:35:52.999Z</time></trkpt><trkpt lat="49.04618115408981" lon="2.508969661395668"><ele>109.99999999999999</ele><time>2026-03-26T17:35:53.999Z</time></trkpt><trkpt lat="49.04611314051991" lon="2.5090633979418833"><ele>110.0</ele><time>2026-03-26T17:35:54.999Z</time></trkpt><trkpt lat="49.04606036436632" lon="2.509140214487574"><ele>110.0</ele><time>2026-03-26T17:35:55.999Z</time></trkpt><trkpt lat="49.04597715470202" lon="2.5092558656457244"><ele>110.0</ele><time>2026-03-26T17:35:58.001Z</time></trkpt><trkpt lat="49.045921120473196" lon="2.5093308979498636"><ele>109.99999999999999</ele><time>2026-03-26T17:36:01.001Z</time></trkpt><trkpt lat="49.045872941298484" lon="2.5093948604539063"><ele>110.0</ele><time>2026-03-26T17:36:04.001Z</time></trkpt><trkpt lat="49.04582375935666" lon="2.5094584405418434"><ele>109.6</ele><time>2026-03-26T17:36:06.001Z</time></trkpt><trkpt lat="49.045762568739086" lon="2.5095399605382043"><ele>109.2</ele><time>2026-03-26T17:36:09Z</time></trkpt><trkpt lat="49.045692727030314" lon="2.509614257003346"><ele>108.80000000000001</ele><time>2026-03-26T17:36:12Z</time></trkpt><trkpt lat="49.04562976826351" lon="2.5097067680230536"><ele>108.4</ele><time>2026-03-26T17:36:14Z</time></trkpt><trkpt lat="49.045598438038795" lon="2.509867010816325"><ele>108.0</ele><time>2026-03-26T17:36:16Z</time></trkpt><trkpt lat="49.045617593523595" lon="2.510039003460432"><ele>108.0</ele><time>2026-03-26T17:36:18Z</time></trkpt><trkpt lat="49.045638661307045" lon="2.510140169971881"><ele>108.0</ele><time>2026-03-26T17:36:19Z</time></trkpt><trkpt lat="49.045659915141684" lon="2.510243430904089"><ele>108.0</ele><time>2026-03-26T17:36:20Z</time></trkpt><trkpt lat="49.04568338515096" lon="2.51035905567116"><ele>108.0</ele><time>2026-03-26T17:36:21Z</time></trkpt><trkpt lat="49.0457099954668" lon="2.510485565144548"><ele>108.0</ele><time>2026-03-26T17:36:22Z</time></trkpt><trkpt lat="49.04573813895076" lon="2.510608814121906"><ele>108.0</ele><time>2026-03-26T17:36:23Z</time></trkpt><trkpt lat="49.04576969217224" lon="2.510719545801971"><ele>107.5</ele><time>2026-03-26T17:36:24Z</time></trkpt><trkpt lat="49.0457924784463" lon="2.510831498966719"><ele>107.0</ele><time>2026-03-26T17:36:25Z</time></trkpt><trkpt lat="49.045781902823556" lon="2.510942735612449"><ele>106.5</ele><time>2026-03-26T17:36:26Z</time></trkpt><trkpt lat="49.045738497791284" lon="2.5110431488118596"><ele>106.0</ele><time>2026-03-26T17:36:27Z</time></trkpt><trkpt lat="49.04566815207416" lon="2.51110959650507"><ele>105.5</ele><time>2026-03-26T17:36:28Z</time></trkpt><trkpt lat="49.04558293527441" lon="2.5111354816134406"><ele>105.0</ele><time>2026-03-26T17:36:29Z</time></trkpt><trkpt lat="49.045486274550846" lon="2.5111309580045833"><ele>105.0</ele><time>2026-03-26T17:36:30Z</time></trkpt><trkpt lat="49.04536485302811" lon="2.5111230566922504"><ele>105.0</ele><time>2026-03-26T17:36:31Z</time></trkpt><trkpt lat="49.045236090965815" lon="2.511123443094992"><ele>105.0</ele><time>2026-03-26T17:36:32Z</time></trkpt><trkpt lat="49.04508695936203" lon="2.5111127221031806"><ele>105.0</ele><time>2026-03-26T17:36:33Z</time></trkpt><trkpt lat="49.044932246723846" lon="2.5110833716960475"><ele>104.66666666666666</ele><time>2026-03-26T17:36:34Z</time></trkpt><trkpt lat="49.0447581343425" lon="2.5110536968535944"><ele>104.33333333333333</ele><time>2026-03-26T17:36:35Z</time></trkpt><trkpt lat="49.04457487225735" lon="2.5110285005301454"><ele>104.0</ele><time>2026-03-26T17:36:36Z</time></trkpt><trkpt lat="49.044382804699204" lon="2.511000795196532"><ele>104.0</ele><time>2026-03-26T17:36:37Z</time></trkpt><trkpt lat="49.04418490699641" lon="2.5109646096669"><ele>104.0</ele><time>2026-03-26T17:36:38Z</time></trkpt><trkpt lat="49.043981445189225" lon="2.510924548423269"><ele>104.0</ele><time>2026-03-26T17:36:39Z</time></trkpt><trkpt lat="49.04377520651266" lon="2.510881619607967"><ele>103.0</ele><time>2026-03-26T17:36:40Z</time></trkpt><trkpt lat="49.0435663356521" lon="2.510839125519301"><ele>102.0</ele><time>2026-03-26T17:36:41Z</time></trkpt><trkpt lat="49.04335410287022" lon="2.51079852921872"><ele>101.0</ele><time>2026-03-26T17:36:42Z</time></trkpt><trkpt lat="49.04314011342157" lon="2.5107560193207106"><ele>99.66666666666666</ele><time>2026-03-26T17:36:43Z</time></trkpt><trkpt lat="49.04292328671634" lon="2.510711918477202"><ele>98.33333333333334</ele><time>2026-03-26T17:36:44Z</time></trkpt><trkpt lat="49.042707126317595" lon="2.5106630011894104"><ele>97.0</ele><time>2026-03-26T17:36:45Z</time></trkpt><trkpt lat="49.04249378122352" lon="2.510619942387493"><ele>96.33333333333334</ele><time>2026-03-26T17:36:46Z</time></trkpt><trkpt lat="49.042280918000934" lon="2.5105727918328338"><ele>95.66666666666667</ele><time>2026-03-26T17:36:47Z</time></trkpt><trkpt lat="49.042066364659135" lon="2.5105249135256282"><ele>95.0</ele><time>2026-03-26T17:36:48Z</time></trkpt><trkpt lat="49.04184895830599" lon="2.5104715187598634"><ele>93.0</ele><time>2026-03-26T17:36:49Z</time></trkpt><trkpt lat="49.04163140431581" lon="2.510404943647342"><ele>91.0</ele><time>2026-03-26T17:36:50Z</time></trkpt><trkpt lat="49.04141443241065" lon="2.510327223928705"><ele>89.0</ele><time>2026-03-26T17:36:51Z</time></trkpt><trkpt lat="49.04119591025037" lon="2.5102429243900484"><ele>89.0</ele><time>2026-03-26T17:36:52Z</time></trkpt><trkpt lat="49.0409793466151" lon="2.510150192520775"><ele>89.0</ele><time>2026-03-26T17:36:53Z</time></trkpt><trkpt lat="49.04076393389857" lon="2.510051444625335"><ele>87.0</ele><time>2026-03-26T17:36:54Z</time></trkpt><trkpt lat="49.04054930014201" lon="2.5099475830579014"><ele>85.0</ele><time>2026-03-26T17:36:55Z</time></trkpt><trkpt lat="49.040337161580894" lon="2.509831098744474"><ele>85.0</ele><time>2026-03-26T17:36:56Z</time></trkpt><trkpt lat="49.040127603442194" lon="2.509703687154157"><ele>85.0</ele><time>2026-03-26T17:36:57Z</time></trkpt><trkpt lat="49.039919832024765" lon="2.5095693692991627"><ele>81.5</ele><time>2026-03-26T17:36:57.999Z</time></trkpt><trkpt lat="49.0397133332718" lon="2.509427680017428"><ele>78.0</ele><time>2026-03-26T17:36:58.999Z</time></trkpt><trkpt lat="49.039509092757854" lon="2.509278280647724"><ele>78.0</ele><time>2026-03-26T17:36:59.999Z</time></trkpt><trkpt lat="49.0393078623746" lon="2.5091222319867486"><ele>78.0</ele><time>2026-03-26T17:37:00.999Z</time></trkpt><trkpt lat="49.039112209133016" lon="2.5089623195346316"><ele>78.0</ele><time>2026-03-26T17:37:01.999Z</time></trkpt><trkpt lat="49.038925079032936" lon="2.5088019388200795"><ele>77.66666666666667</ele><time>2026-03-26T17:37:02.999Z</time></trkpt><trkpt lat="49.03873938674467" lon="2.508646131269525"><ele>77.33333333333334</ele><time>2026-03-26T17:37:03.999Z</time></trkpt><trkpt lat="49.0385539117871" lon="2.5084911473257474"><ele>77.0</ele><time>2026-03-26T17:37:04.999Z</time></trkpt><trkpt lat="49.0383728826498" lon="2.508341343071967"><ele>78.66666666666667</ele><time>2026-03-26T17:37:05.999Z</time></trkpt><trkpt lat="49.038194211895814" lon="2.5081940989186053"><ele>80.33333333333333</ele><time>2026-03-26T17:37:06.999Z</time></trkpt><trkpt lat="49.0380165285558" lon="2.5080414837992975"><ele>82.0</ele><time>2026-03-26T17:37:07.999Z</time></trkpt><trkpt lat="49.0378401799586" lon="2.5078900298375344"><ele>82.0</ele><time>2026-03-26T17:37:08.999Z</time></trkpt><trkpt lat="49.03766303188852" lon="2.5077361520936297"><ele>82.0</ele><time>2026-03-26T17:37:09.999Z</time></trkpt><trkpt lat="49.03748604429137" lon="2.5075832195675347"><ele>82.0</ele><time>2026-03-26T17:37:10.999Z</time></trkpt><trkpt lat="49.037306950724805" lon="2.507429092841785"><ele>83.33333333333333</ele><time>2026-03-26T17:37:11.999Z</time></trkpt><trkpt lat="49.03712736599395" lon="2.5072726982148423"><ele>84.66666666666667</ele><time>2026-03-26T17:37:12.999Z</time></trkpt><trkpt lat="49.03694574647098" lon="2.507117833159608"><ele>86.0</ele><time>2026-03-26T17:37:13.999Z</time></trkpt><trkpt lat="49.0367621830008" lon="2.5069661682073403"><ele>88.0</ele><time>2026-03-26T17:37:14.999Z</time></trkpt><trkpt lat="49.036575878298706" lon="2.506808339503913"><ele>90.0</ele><time>2026-03-26T17:37:15.999Z</time></trkpt><trkpt lat="49.03638893113221" lon="2.5066518894481224"><ele>92.0</ele><time>2026-03-26T17:37:16.999Z</time></trkpt><trkpt lat="49.03620022593741" lon="2.5064902748488893"><ele>92.0</ele><time>2026-03-26T17:37:17.999Z</time></trkpt><trkpt lat="49.03600771433925" lon="2.5063254781498707"><ele>92.0</ele><time>2026-03-26T17:37:18.999Z</time></trkpt><trkpt lat="49.03581478393017" lon="2.5061633250667366"><ele>92.0</ele><time>2026-03-26T17:37:19.999Z</time></trkpt><trkpt lat="49.03562187705945" lon="2.5060017037131375"><ele>92.66666666666667</ele><time>2026-03-26T17:37:20.999Z</time></trkpt><trkpt lat="49.03543139589857" lon="2.505846985097633"><ele>93.33333333333333</ele><time>2026-03-26T17:37:21.999Z</time></trkpt><trkpt lat="49.03524107170083" lon="2.505702901057957"><ele>94.0</ele><time>2026-03-26T17:37:22.999Z</time></trkpt><trkpt lat="49.03504916639642" lon="2.5055635580262496"><ele>95.33333333333333</ele><time>2026-03-26T17:37:23.999Z</time></trkpt><trkpt lat="49.03485759984664" lon="2.5054195542084363"><ele>96.66666666666666</ele><time>2026-03-26T17:37:24.999Z</time></trkpt><trkpt lat="49.03466656626211" lon="2.505275180079047"><ele>98.0</ele><time>2026-03-26T17:37:25.999Z</time></trkpt><trkpt lat="49.03447422310982" lon="2.5051320938133923"><ele>98.33333333333333</ele><time>2026-03-26T17:37:26.999Z</time></trkpt><trkpt lat="49.03428366465596" lon="2.5049951701308806"><ele>98.66666666666666</ele><time>2026-03-26T17:37:27.999Z</time></trkpt><trkpt lat="49.034087643956234" lon="2.504859922924697"><ele>99.0</ele><time>2026-03-26T17:37:28.999Z</time></trkpt><trkpt lat="49.03389158575289" lon="2.5047330608500786"><ele>99.66666666666666</ele><time>2026-03-26T17:37:29.999Z</time></trkpt><trkpt lat="49.033696440639396" lon="2.5046117809118207"><ele>100.33333333333333</ele><time>2026-03-26T17:37:30.999Z</time></trkpt><trkpt lat="49.033501566684286" lon="2.504490724488873"><ele>101.0</ele><time>2026-03-26T17:37:31.999Z</time></trkpt><trkpt lat="49.03330843889989" lon="2.504369031263571"><ele>101.33333333333333</ele><time>2026-03-26T17:37:32.999Z</time></trkpt><trkpt lat="49.03311245594182" lon="2.5042427838418457"><ele>101.66666666666666</ele><time>2026-03-26T17:37:33.999Z</time></trkpt><trkpt lat="49.032922703837066" lon="2.5041152002787377"><ele>102.0</ele><time>2026-03-26T17:37:34.999Z</time></trkpt><trkpt lat="49.03273508636355" lon="2.5039902960662705"><ele>102.0</ele><time>2026-03-26T17:37:35.999Z</time></trkpt><trkpt lat="49.0325535012272" lon="2.503867343988352"><ele>102.0</ele><time>2026-03-26T17:37:36.999Z</time></trkpt><trkpt lat="49.032386532830266" lon="2.5037507381751207"><ele>102.0</ele><time>2026-03-26T17:37:37.999Z</time></trkpt><trkpt lat="49.032240587366914" lon="2.503637233375022"><ele>102.33333333333334</ele><time>2026-03-26T17:37:38.999Z</time></trkpt><trkpt lat="49.03210645108767" lon="2.5035135133322193"><ele>102.66666666666667</ele><time>2026-03-26T17:37:39.999Z</time></trkpt><trkpt lat="49.03198222565979" lon="2.5033757342478657"><ele>103.0</ele><time>2026-03-26T17:37:40.999Z</time></trkpt><trkpt lat="49.031865234758634" lon="2.503224285867188"><ele>103.0</ele><time>2026-03-26T17:37:41.999Z</time></trkpt><trkpt lat="49.031755980010445" lon="2.5030673481239316"><ele>103.0</ele><time>2026-03-26T17:37:42.999Z</time></trkpt><trkpt lat="49.03165287751769" lon="2.5029014699227865"><ele>103.0</ele><time>2026-03-26T17:37:43.999Z</time></trkpt><trkpt lat="49.03155490866833" lon="2.502718505256884"><ele>102.66666666666667</ele><time>2026-03-26T17:37:44.999Z</time></trkpt><trkpt lat="49.03146923174053" lon="2.5025215655575135"><ele>102.33333333333334</ele><time>2026-03-26T17:37:45.999Z</time></trkpt><trkpt lat="49.031386837076575" lon="2.5023291700358175"><ele>102.0</ele><time>2026-03-26T17:37:46.999Z</time></trkpt><trkpt lat="49.03131191893454" lon="2.502129429971252"><ele>101.75</ele><time>2026-03-26T17:37:47.999Z</time></trkpt><trkpt lat="49.031239641134334" lon="2.501930404747611"><ele>101.5</ele><time>2026-03-26T17:37:48.999Z</time></trkpt><trkpt lat="49.03116920356364" lon="2.501732633003264"><ele>101.25</ele><time>2026-03-26T17:37:49.999Z</time></trkpt><trkpt lat="49.03109616825565" lon="2.5015406226870027"><ele>101.0</ele><time>2026-03-26T17:37:50.999Z</time></trkpt><trkpt lat="49.03102468568716" lon="2.5013584421248556"><ele>101.0</ele><time>2026-03-26T17:37:51.999Z</time></trkpt><trkpt lat="49.030945596727285" lon="2.501169709074951"><ele>101.0</ele><time>2026-03-26T17:37:52.999Z</time></trkpt><trkpt lat="49.030865202807725" lon="2.5009789962111646"><ele>101.0</ele><time>2026-03-26T17:37:53.999Z</time></trkpt><trkpt lat="49.03078082292687" lon="2.5007986933417747"><ele>101.0</ele><time>2026-03-26T17:37:54.999Z</time></trkpt><trkpt lat="49.03069592149875" lon="2.5006341708339903"><ele>100.6</ele><time>2026-03-26T17:37:55.999Z</time></trkpt><trkpt lat="49.030608755150496" lon="2.500480969337978"><ele>100.19999999999999</ele><time>2026-03-26T17:37:56.999Z</time></trkpt><trkpt lat="49.030527860185884" lon="2.5003535788521516"><ele>99.80000000000001</ele><time>2026-03-26T17:37:57.998Z</time></trkpt><trkpt lat="49.03045366588716" lon="2.5002407016516512"><ele>99.4</ele><time>2026-03-26T17:37:58.998Z</time></trkpt><trkpt lat="49.03038636327776" lon="2.500146628874366"><ele>99.0</ele><time>2026-03-26T17:37:59.998Z</time></trkpt><trkpt lat="49.03033288705659" lon="2.500066806414994"><ele>99.0</ele><time>2026-03-26T17:38:00.998Z</time></trkpt><trkpt lat="49.03028496458667" lon="2.499993616195792"><ele>99.0</ele><time>2026-03-26T17:38:02Z</time></trkpt><trkpt lat="49.030221563479785" lon="2.499893591438024"><ele>99.0</ele><time>2026-03-26T17:38:04Z</time></trkpt><trkpt lat="49.03017591018821" lon="2.499817149479377"><ele>99.0</ele><time>2026-03-26T17:38:07Z</time></trkpt><trkpt lat="49.030124750507525" lon="2.499702678044506"><ele>99.0</ele><time>2026-03-26T17:38:16Z</time></trkpt><trkpt lat="49.0300924737019" lon="2.4995957266296256"><ele>99.0</ele><time>2026-03-26T17:38:17Z</time></trkpt><trkpt lat="49.030071967539726" lon="2.4994598911271173"><ele>98.80000000000001</ele><time>2026-03-26T17:38:18Z</time></trkpt><trkpt lat="49.03004317586181" lon="2.499291402861289"><ele>98.60000000000001</ele><time>2026-03-26T17:38:19Z</time></trkpt><trkpt lat="49.029995810086746" lon="2.4991357550968463"><ele>98.4</ele><time>2026-03-26T17:38:20Z</time></trkpt><trkpt lat="49.029942002722194" lon="2.499009935696667"><ele>98.2</ele><time>2026-03-26T17:38:21Z</time></trkpt><trkpt lat="49.02986601703045" lon="2.498887288337403"><ele>98.0</ele><time>2026-03-26T17:38:22Z</time></trkpt><trkpt lat="49.02977226475855" lon="2.498781264968737"><ele>98.5</ele><time>2026-03-26T17:38:23Z</time></trkpt><trkpt lat="49.02966394103081" lon="2.498704204713259"><ele>99.0</ele><time>2026-03-26T17:38:24Z</time></trkpt><trkpt lat="49.02954506720793" lon="2.498655465267363"><ele>99.5</ele><time>2026-03-26T17:38:25Z</time></trkpt><trkpt lat="49.02942154369323" lon="2.4986349765126263"><ele>100.0</ele><time>2026-03-26T17:38:26Z</time></trkpt><trkpt lat="49.02930015900439" lon="2.4986423705144625"><ele>100.0</ele><time>2026-03-26T17:38:27Z</time></trkpt><trkpt lat="49.02918204866494" lon="2.498675446761198"><ele>100.0</ele><time>2026-03-26T17:38:28Z</time></trkpt><trkpt lat="49.029068707828415" lon="2.4987423030705442"><ele>100.0</ele><time>2026-03-26T17:38:29Z</time></trkpt><trkpt lat="49.02896651718629" lon="2.498850171159133"><ele>100.0</ele><time>2026-03-26T17:38:30Z</time></trkpt><trkpt lat="49.02888211276325" lon="2.498979829486814"><ele>99.6</ele><time>2026-03-26T17:38:31Z</time></trkpt><trkpt lat="49.0288185019694" lon="2.499117452573026"><ele>99.2</ele><time>2026-03-26T17:38:32Z</time></trkpt><trkpt lat="49.02877108492808" lon="2.499262547952702"><ele>98.80000000000001</ele><time>2026-03-26T17:38:33Z</time></trkpt><trkpt lat="49.02871575056714" lon="2.4993965478698383"><ele>98.4</ele><time>2026-03-26T17:38:34Z</time></trkpt><trkpt lat="49.02863644259312" lon="2.499477709641216"><ele>98.0</ele><time>2026-03-26T17:38:35Z</time></trkpt><trkpt lat="49.02853329342781" lon="2.4995039594587958"><ele>98.0</ele><time>2026-03-26T17:38:36Z</time></trkpt><trkpt lat="49.02841431236082" lon="2.4995032960759804"><ele>98.0</ele><time>2026-03-26T17:38:37Z</time></trkpt><trkpt lat="49.02827129956376" lon="2.499495634216891"><ele>98.0</ele><time>2026-03-26T17:38:38Z</time></trkpt><trkpt lat="49.028111699662865" lon="2.4994871907647993"><ele>98.0</ele><time>2026-03-26T17:38:39Z</time></trkpt><trkpt lat="49.02792435704162" lon="2.499469128961643"><ele>97.66666666666666</ele><time>2026-03-26T17:38:40Z</time></trkpt><trkpt lat="49.027743731674676" lon="2.499471971224048"><ele>97.33333333333334</ele><time>2026-03-26T17:38:41Z</time></trkpt><trkpt lat="49.02755461381273" lon="2.499499538565548"><ele>97.0</ele><time>2026-03-26T17:38:42Z</time></trkpt><trkpt lat="49.02735329332128" lon="2.4995443673851714"><ele>98.0</ele><time>2026-03-26T17:38:43Z</time></trkpt><trkpt lat="49.02713456870824" lon="2.4995996400129004"><ele>99.0</ele><time>2026-03-26T17:38:44Z</time></trkpt><trkpt lat="49.02689404611835" lon="2.4996639332256363"><ele>99.0</ele><time>2026-03-26T17:38:45Z</time></trkpt><trkpt lat="49.02666500256297" lon="2.499712904414337"><ele>99.0</ele><time>2026-03-26T17:38:46Z</time></trkpt><trkpt lat="49.02642011921963" lon="2.4997403854419544"><ele>100.5</ele><time>2026-03-26T17:38:47Z</time></trkpt><trkpt lat="49.026195878834415" lon="2.4997593647050302"><ele>102.0</ele><time>2026-03-26T17:38:48Z</time></trkpt><trkpt lat="49.025969007906696" lon="2.4997416973357285"><ele>102.0</ele><time>2026-03-26T17:38:49Z</time></trkpt><trkpt lat="49.02574159554679" lon="2.499701564956312"><ele>102.0</ele><time>2026-03-26T17:38:50Z</time></trkpt><trkpt lat="49.02552448011003" lon="2.4996168737468323"><ele>102.0</ele><time>2026-03-26T17:38:50.999Z</time></trkpt><trkpt lat="49.02530797526502" lon="2.49951172948119"><ele>102.0</ele><time>2026-03-26T17:38:51.999Z</time></trkpt><trkpt lat="49.02509768642117" lon="2.499384590312874"><ele>102.0</ele><time>2026-03-26T17:38:52.999Z</time></trkpt><trkpt lat="49.024889169827766" lon="2.4992352611517634"><ele>102.0</ele><time>2026-03-26T17:38:53.999Z</time></trkpt><trkpt lat="49.024681339128215" lon="2.4990689359235043"><ele>102.0</ele><time>2026-03-26T17:38:54.999Z</time></trkpt><trkpt lat="49.02447191716696" lon="2.4988968111750802"><ele>102.0</ele><time>2026-03-26T17:38:55.999Z</time></trkpt><trkpt lat="49.02426234099268" lon="2.4987216903751364"><ele>101.5</ele><time>2026-03-26T17:38:56.999Z</time></trkpt><trkpt lat="49.024051419478816" lon="2.498546983967833"><ele>101.0</ele><time>2026-03-26T17:38:57.999Z</time></trkpt><trkpt lat="49.023836579271055" lon="2.4983772348506585"><ele>101.0</ele><time>2026-03-26T17:38:58.999Z</time></trkpt><trkpt lat="49.0236171222387" lon="2.4982158693446257"><ele>101.0</ele><time>2026-03-26T17:38:59.999Z</time></trkpt><trkpt lat="49.02339685930268" lon="2.4980681464125394"><ele>101.5</ele><time>2026-03-26T17:39:00.999Z</time></trkpt><trkpt lat="49.02317225293321" lon="2.497929564543496"><ele>102.0</ele><time>2026-03-26T17:39:01.999Z</time></trkpt><trkpt lat="49.022945126943895" lon="2.497794252843521"><ele>102.5</ele><time>2026-03-26T17:39:02.999Z</time></trkpt><trkpt lat="49.022720332303315" lon="2.497652708878462"><ele>103.0</ele><time>2026-03-26T17:39:03.999Z</time></trkpt><trkpt lat="49.02249687933319" lon="2.4975101607502035"><ele>104.0</ele><time>2026-03-26T17:39:04.999Z</time></trkpt><trkpt lat="49.02227232827791" lon="2.497368762666143"><ele>105.0</ele><time>2026-03-26T17:39:05.999Z</time></trkpt><trkpt lat="49.022046543835" lon="2.4972267025675827"><ele>105.0</ele><time>2026-03-26T17:39:06.999Z</time></trkpt><trkpt lat="49.021820731248255" lon="2.497085083313407"><ele>105.0</ele><time>2026-03-26T17:39:07.999Z</time></trkpt><trkpt lat="49.021593699037524" lon="2.4969395520401183"><ele>105.0</ele><time>2026-03-26T17:39:08.999Z</time></trkpt><trkpt lat="49.0213653485952" lon="2.496792942376908"><ele>105.0</ele><time>2026-03-26T17:39:09.999Z</time></trkpt><trkpt lat="49.02113563629975" lon="2.4966452620898605"><ele>105.0</ele><time>2026-03-26T17:39:10.999Z</time></trkpt><trkpt lat="49.020906430574705" lon="2.4964952435630234"><ele>105.0</ele><time>2026-03-26T17:39:11.999Z</time></trkpt><trkpt lat="49.02067451160234" lon="2.496347478965374"><ele>104.5</ele><time>2026-03-26T17:39:12.999Z</time></trkpt><trkpt lat="49.02044030876378" lon="2.4961982520934556"><ele>104.0</ele><time>2026-03-26T17:39:13.999Z</time></trkpt><trkpt lat="49.020204480649056" lon="2.4960484247742887"><ele>104.0</ele><time>2026-03-26T17:39:14.999Z</time></trkpt><trkpt lat="49.01996795943535" lon="2.495900769508097"><ele>104.0</ele><time>2026-03-26T17:39:15.999Z</time></trkpt><trkpt lat="49.01973339221313" lon="2.495753171443772"><ele>104.0</ele><time>2026-03-26T17:39:16.999Z</time></trkpt><trkpt lat="49.01950080029613" lon="2.495604914099263"><ele>104.0</ele><time>2026-03-26T17:39:17.999Z</time></trkpt><trkpt lat="49.01926845756551" lon="2.4954548309726197"><ele>105.0</ele><time>2026-03-26T17:39:18.999Z</time></trkpt><trkpt lat="49.01903587317907" lon="2.495308188621698"><ele>106.0</ele><time>2026-03-26T17:39:19.999Z</time></trkpt><trkpt lat="49.01880465719183" lon="2.495162360522537"><ele>106.0</ele><time>2026-03-26T17:39:20.999Z</time></trkpt><trkpt lat="49.018572639710264" lon="2.4950190826177203"><ele>106.0</ele><time>2026-03-26T17:39:21.999Z</time></trkpt><trkpt lat="49.01834156197894" lon="2.494870166839931"><ele>106.0</ele><time>2026-03-26T17:39:22.999Z</time></trkpt><trkpt lat="49.018111268965775" lon="2.494720146985528"><ele>106.0</ele><time>2026-03-26T17:39:23.999Z</time></trkpt><trkpt lat="49.01787947620413" lon="2.494570491584721"><ele>106.0</ele><time>2026-03-26T17:39:24.999Z</time></trkpt><trkpt lat="49.0176465992483" lon="2.4944247685329923"><ele>106.0</ele><time>2026-03-26T17:39:25.999Z</time></trkpt><trkpt lat="49.017415466732835" lon="2.4942787372659794"><ele>105.5</ele><time>2026-03-26T17:39:26.999Z</time></trkpt><trkpt lat="49.017183255865945" lon="2.4941306544604447"><ele>105.0</ele><time>2026-03-26T17:39:27.999Z</time></trkpt><trkpt lat="49.01694819310238" lon="2.493981795626325"><ele>105.0</ele><time>2026-03-26T17:39:28.999Z</time></trkpt><trkpt lat="49.01671247174718" lon="2.4938326224714356"><ele>105.0</ele><time>2026-03-26T17:39:29.999Z</time></trkpt><trkpt lat="49.01647427161978" lon="2.4936851457710127"><ele>105.0</ele><time>2026-03-26T17:39:30.999Z</time></trkpt><trkpt lat="49.016233173221146" lon="2.493549530719854"><ele>105.0</ele><time>2026-03-26T17:39:31.999Z</time></trkpt><trkpt lat="49.01598974888928" lon="2.4934320699586485"><ele>105.0</ele><time>2026-03-26T17:39:32.999Z</time></trkpt><trkpt lat="49.015746370368205" lon="2.49331777684623"><ele>105.0</ele><time>2026-03-26T17:39:33.999Z</time></trkpt><trkpt lat="49.01550738093629" lon="2.493209927683481"><ele>105.0</ele><time>2026-03-26T17:39:34.999Z</time></trkpt><trkpt lat="49.01526854958731" lon="2.4931073151172747"><ele>105.0</ele><time>2026-03-26T17:39:35.999Z</time></trkpt><trkpt lat="49.015032878924465" lon="2.4930034459944355"><ele>105.5</ele><time>2026-03-26T17:39:36.999Z</time></trkpt><trkpt lat="49.01480527027696" lon="2.492897587707979"><ele>106.0</ele><time>2026-03-26T17:39:37.999Z</time></trkpt><trkpt lat="49.01457526737522" lon="2.4927933887689107"><ele>106.0</ele><time>2026-03-26T17:39:38.999Z</time></trkpt><trkpt lat="49.01434410558452" lon="2.492689263885628"><ele>106.0</ele><time>2026-03-26T17:39:39.999Z</time></trkpt><trkpt lat="49.014114530969685" lon="2.4925882251042197"><ele>105.0</ele><time>2026-03-26T17:39:40.999Z</time></trkpt><trkpt lat="49.013886750793404" lon="2.4924896388726387"><ele>104.0</ele><time>2026-03-26T17:39:41.999Z</time></trkpt><trkpt lat="49.01366502478792" lon="2.4923961712307423"><ele>104.0</ele><time>2026-03-26T17:39:42.999Z</time></trkpt><trkpt lat="49.01345590680599" lon="2.492304751167306"><ele>104.0</ele><time>2026-03-26T17:39:43.999Z</time></trkpt><trkpt lat="49.01324841731066" lon="2.492212696276582"><ele>104.0</ele><time>2026-03-26T17:39:44.999Z</time></trkpt><trkpt lat="49.013048644235354" lon="2.4921195344030282"><ele>104.0</ele><time>2026-03-26T17:39:45.999Z</time></trkpt><trkpt lat="49.01285102589451" lon="2.49202651830637"><ele>104.0</ele><time>2026-03-26T17:39:46.999Z</time></trkpt><trkpt lat="49.012656976961416" lon="2.4919342334045864"><ele>104.0</ele><time>2026-03-26T17:39:47.998Z</time></trkpt><trkpt lat="49.01247189480258" lon="2.491846048750062"><ele>104.0</ele><time>2026-03-26T17:39:48.998Z</time></trkpt><trkpt lat="49.01229063630911" lon="2.4917581418091337"><ele>104.0</ele><time>2026-03-26T17:39:49.998Z</time></trkpt><trkpt lat="49.01211514242606" lon="2.4916719263448135"><ele>104.0</ele><time>2026-03-26T17:39:50.998Z</time></trkpt><trkpt lat="49.011947005183885" lon="2.4915887608335145"><ele>104.0</ele><time>2026-03-26T17:39:51.998Z</time></trkpt><trkpt lat="49.011787612861916" lon="2.4914976212762725"><ele>104.0</ele><time>2026-03-26T17:39:52.998Z</time></trkpt><trkpt lat="49.0116396312104" lon="2.4914128858150946"><ele>104.0</ele><time>2026-03-26T17:39:53.998Z</time></trkpt><trkpt lat="49.01149317036183" lon="2.4913389395629877"><ele>103.75</ele><time>2026-03-26T17:39:54.998Z</time></trkpt><trkpt lat="49.01134719589412" lon="2.4912783932778693"><ele>103.5</ele><time>2026-03-26T17:39:55.998Z</time></trkpt><trkpt lat="49.01120926287612" lon="2.4912267778612933"><ele>103.25</ele><time>2026-03-26T17:39:56.998Z</time></trkpt><trkpt lat="49.01108561517328" lon="2.49117834725055"><ele>103.0</ele><time>2026-03-26T17:39:57.998Z</time></trkpt><trkpt lat="49.010968644087534" lon="2.4911266520528956"><ele>103.0</ele><time>2026-03-26T17:39:58.998Z</time></trkpt><trkpt lat="49.01087247665392" lon="2.491077947040432"><ele>103.0</ele><time>2026-03-26T17:39:59.998Z</time></trkpt><trkpt lat="49.010791331784674" lon="2.4910162607725987"><ele>103.0</ele><time>2026-03-26T17:40:00.998Z</time></trkpt><trkpt lat="49.01071784607236" lon="2.4909215781007146"><ele>103.0</ele><time>2026-03-26T17:40:01.998Z</time></trkpt><trkpt lat="49.01065563541788" lon="2.4907909945984867"><ele>103.0</ele><time>2026-03-26T17:40:02.998Z</time></trkpt><trkpt lat="49.01061109721536" lon="2.4906344289058127"><ele>103.0</ele><time>2026-03-26T17:40:03.998Z</time></trkpt><trkpt lat="49.01059466841686" lon="2.4904690522623896"><ele>103.0</ele><time>2026-03-26T17:40:04.998Z</time></trkpt><trkpt lat="49.01059674797284" lon="2.4903062771783215"><ele>103.0</ele><time>2026-03-26T17:40:05.998Z</time></trkpt><trkpt lat="49.010621699005604" lon="2.490146482055314"><ele>103.0</ele><time>2026-03-26T17:40:06.998Z</time></trkpt><trkpt lat="49.01065241535296" lon="2.4900024230275704"><ele>103.0</ele><time>2026-03-26T17:40:08Z</time></trkpt><trkpt lat="49.01067408354235" lon="2.4898758504145135"><ele>102.83333333333334</ele><time>2026-03-26T17:40:09Z</time></trkpt><trkpt lat="49.01069153530509" lon="2.489754954285326"><ele>102.66666666666667</ele><time>2026-03-26T17:40:10Z</time></trkpt><trkpt lat="49.01071807940641" lon="2.4896415537848937"><ele>102.5</ele><time>2026-03-26T17:40:11Z</time></trkpt><trkpt lat="49.010747199730915" lon="2.489554303138406"><ele>102.33333333333334</ele><time>2026-03-26T17:40:12Z</time></trkpt><trkpt lat="49.010807718716464" lon="2.4893833946375246"><ele>102.16666666666667</ele><time>2026-03-26T17:40:14Z</time></trkpt><trkpt lat="49.01083997269136" lon="2.489299991571114"><ele>102.0</ele><time>2026-03-26T17:40:15Z</time></trkpt><trkpt lat="49.01088717408996" lon="2.4892286217541875"><ele>101.85714285714286</ele><time>2026-03-26T17:40:16Z</time></trkpt><trkpt lat="49.01094891717766" lon="2.489172948858455"><ele>101.71428571428572</ele><time>2026-03-26T17:40:17Z</time></trkpt><trkpt lat="49.01100762593511" lon="2.489119461360016"><ele>101.57142857142857</ele><time>2026-03-26T17:40:18Z</time></trkpt><trkpt lat="49.011059101181374" lon="2.4890470434598746"><ele>101.42857142857143</ele><time>2026-03-26T17:40:19Z</time></trkpt><trkpt lat="49.011102379153904" lon="2.488956398544658"><ele>101.28571428571428</ele><time>2026-03-26T17:40:20Z</time></trkpt><trkpt lat="49.01111955168767" lon="2.488851486024226"><ele>101.14285714285714</ele><time>2026-03-26T17:40:21Z</time></trkpt><trkpt lat="49.01114527614261" lon="2.488740352689882"><ele>101.0</ele><time>2026-03-26T17:40:22Z</time></trkpt><trkpt lat="49.0111398916837" lon="2.4886099923453218"><ele>100.99999999999999</ele><time>2026-03-26T17:40:23Z</time></trkpt><trkpt lat="49.0111123299203" lon="2.4884883808210523"><ele>101.0</ele><time>2026-03-26T17:40:24Z</time></trkpt><trkpt lat="49.0110575328635" lon="2.488379634227879"><ele>101.0</ele><time>2026-03-26T17:40:25Z</time></trkpt><trkpt lat="49.01098468742672" lon="2.4883079395533185"><ele>101.0</ele><time>2026-03-26T17:40:26Z</time></trkpt><trkpt lat="49.01090369274493" lon="2.4882961759698885"><ele>100.99999999999999</ele><time>2026-03-26T17:40:28Z</time></trkpt><trkpt lat="49.01083439672234" lon="2.4882537489113"><ele>101.0</ele><time>2026-03-26T17:40:31Z</time></trkpt><trkpt lat="49.01080326638672" lon="2.4880456153863606"><ele>100.8</ele><time>2026-03-26T17:40:34Z</time></trkpt><trkpt lat="49.01079122469182" lon="2.4879090391313454"><ele>100.6</ele><time>2026-03-26T17:40:36Z</time></trkpt><trkpt lat="49.010788458228745" lon="2.4877568451402907"><ele>100.4</ele><time>2026-03-26T17:40:38Z</time></trkpt><trkpt lat="49.0107757196181" lon="2.4875971560083654"><ele>100.2</ele><time>2026-03-26T17:40:40Z</time></trkpt><trkpt lat="49.01078146518628" lon="2.4874732641428428"><ele>100.0</ele><time>2026-03-26T17:40:42Z</time></trkpt><trkpt lat="49.0107869847627" lon="2.4873615769289175"><ele>100.0</ele><time>2026-03-26T17:40:44Z</time></trkpt><trkpt lat="49.01081989017979" lon="2.4872408826966765"><ele>100.0</ele><time>2026-03-26T17:40:46Z</time></trkpt><trkpt lat="49.01083523764539" lon="2.4870818555376397"><ele>100.0</ele><time>2026-03-26T17:40:48Z</time></trkpt><trkpt lat="49.01084667385727" lon="2.48689806572383"><ele>100.0</ele><time>2026-03-26T17:40:50Z</time></trkpt><trkpt lat="49.01086368282395" lon="2.4867236772098362"><ele>100.0</ele><time>2026-03-26T17:40:51.999Z</time></trkpt><trkpt lat="49.010864548989765" lon="2.486569751791546"><ele>99.25</ele><time>2026-03-26T17:40:53.999Z</time></trkpt><trkpt lat="49.01090152947716" lon="2.4864176195302554"><ele>98.5</ele><time>2026-03-26T17:40:55.999Z</time></trkpt><trkpt lat="49.01092477779959" lon="2.486235880971586"><ele>97.75</ele><time>2026-03-26T17:40:57.999Z</time></trkpt><trkpt lat="49.01094277230688" lon="2.48606222703539"><ele>97.0</ele><time>2026-03-26T17:40:59.999Z</time></trkpt><trkpt lat="49.01095855478025" lon="2.4858823960336602"><ele>97.0</ele><time>2026-03-26T17:41:01.999Z</time></trkpt><trkpt lat="49.01097186417748" lon="2.4857861825027743"><ele>97.0</ele><time>2026-03-26T17:41:02.999Z</time></trkpt><trkpt lat="49.01098621735583" lon="2.4856870918091625"><ele>97.0</ele><time>2026-03-26T17:41:03.999Z</time></trkpt><trkpt lat="49.010999161722445" lon="2.485579193739383"><ele>97.0</ele><time>2026-03-26T17:41:04.999Z</time></trkpt><trkpt lat="49.011012807603706" lon="2.4854713924402296"><ele>97.0</ele><time>2026-03-26T17:41:05.999Z</time></trkpt><trkpt lat="49.011024355316295" lon="2.485350070075053"><ele>97.0</ele><time>2026-03-26T17:41:06.999Z</time></trkpt><trkpt lat="49.01103903888514" lon="2.4852198626288415"><ele>97.0</ele><time>2026-03-26T17:41:07.999Z</time></trkpt><trkpt lat="49.01106696042174" lon="2.485096762868175"><ele>97.00000000000001</ele><time>2026-03-26T17:41:08.999Z</time></trkpt><trkpt lat="49.011066502899745" lon="2.484972459960543"><ele>97.0</ele><time>2026-03-26T17:41:09.999Z</time></trkpt><trkpt lat="49.01108109310603" lon="2.4848605362781786"><ele>97.0</ele><time>2026-03-26T17:41:10.999Z</time></trkpt><trkpt lat="49.011108619126084" lon="2.484768326321489"><ele>97.0</ele><time>2026-03-26T17:41:11.999Z</time></trkpt><trkpt lat="49.011116457586965" lon="2.4846623167372437"><ele>97.00000000000001</ele><time>2026-03-26T17:41:14.999Z</time></trkpt><trkpt lat="49.01113488174177" lon="2.484506102640859"><ele>97.0</ele><time>2026-03-26T17:41:31.999Z</time></trkpt><trkpt lat="49.011152796599895" lon="2.4843419478408997"><ele>97.00000000000001</ele><time>2026-03-26T17:41:33.999Z</time></trkpt><trkpt lat="49.0111644684989" lon="2.4842373490773793"><ele>97.0</ele><time>2026-03-26T17:41:34.999Z</time></trkpt><trkpt lat="49.011176798967185" lon="2.4841274596127327"><ele>97.0</ele><time>2026-03-26T17:41:35.999Z</time></trkpt><trkpt lat="49.01118692322119" lon="2.4840010190070103"><ele>97.0</ele><time>2026-03-26T17:41:36.999Z</time></trkpt><trkpt lat="49.011196423923664" lon="2.483868315130045"><ele>97.00000000000001</ele><time>2026-03-26T17:41:37.999Z</time></trkpt><trkpt lat="49.01120468614891" lon="2.4837329557932915"><ele>97.0</ele><time>2026-03-26T17:41:38.999Z</time></trkpt><trkpt lat="49.01120165885491" lon="2.4835861409006115"><ele>97.0</ele><time>2026-03-26T17:41:39.999Z</time></trkpt><trkpt lat="49.01119894944795" lon="2.48343146286828"><ele>97.0</ele><time>2026-03-26T17:41:40.999Z</time></trkpt><trkpt lat="49.011208549988744" lon="2.483266682389875"><ele>97.0</ele><time>2026-03-26T17:41:41.999Z</time></trkpt><trkpt lat="49.01122316785476" lon="2.483109639514272"><ele>97.0</ele><time>2026-03-26T17:41:42.999Z</time></trkpt><trkpt lat="49.011232288651435" lon="2.4829371238187607"><ele>97.0</ele><time>2026-03-26T17:41:43.999Z</time></trkpt><trkpt lat="49.011238676161554" lon="2.4827684731704225"><ele>96.75</ele><time>2026-03-26T17:41:44.999Z</time></trkpt><trkpt lat="49.01124618842455" lon="2.4826021549454533"><ele>96.5</ele><time>2026-03-26T17:41:45.999Z</time></trkpt><trkpt lat="49.01125665086931" lon="2.4824294879448137"><ele>96.25</ele><time>2026-03-26T17:41:46.999Z</time></trkpt><trkpt lat="49.01126588123908" lon="2.482256228884574"><ele>96.0</ele><time>2026-03-26T17:41:47.999Z</time></trkpt><trkpt lat="49.011271102501645" lon="2.482069751539425"><ele>95.25</ele><time>2026-03-26T17:41:48.999Z</time></trkpt><trkpt lat="49.01128204249957" lon="2.4818832954119774"><ele>94.5</ele><time>2026-03-26T17:41:49.998Z</time></trkpt><trkpt lat="49.01129059661258" lon="2.4816981897192187"><ele>93.75</ele><time>2026-03-26T17:41:50.998Z</time></trkpt><trkpt lat="49.01130838046061" lon="2.481517874337465"><ele>93.0</ele><time>2026-03-26T17:41:51.998Z</time></trkpt><trkpt lat="49.01131828406868" lon="2.4813291255529157"><ele>93.0</ele><time>2026-03-26T17:41:52.998Z</time></trkpt><trkpt lat="49.011332824768346" lon="2.481133258932302"><ele>93.0</ele><time>2026-03-26T17:41:53.998Z</time></trkpt><trkpt lat="49.011346012885745" lon="2.480937247588559"><ele>93.0</ele><time>2026-03-26T17:41:54.998Z</time></trkpt><trkpt lat="49.011364580926674" lon="2.480744190571582"><ele>93.0</ele><time>2026-03-26T17:41:55.998Z</time></trkpt><trkpt lat="49.011372189036756" lon="2.4805491511293996"><ele>92.75</ele><time>2026-03-26T17:41:56.998Z</time></trkpt><trkpt lat="49.01139038900816" lon="2.480361893669779"><ele>92.5</ele><time>2026-03-26T17:41:57.998Z</time></trkpt><trkpt lat="49.011412291969386" lon="2.480177816994412"><ele>92.25</ele><time>2026-03-26T17:41:58.998Z</time></trkpt><trkpt lat="49.011429254348265" lon="2.479985479539733"><ele>92.0</ele><time>2026-03-26T17:41:59.998Z</time></trkpt><trkpt lat="49.01144588406538" lon="2.479794841149975"><ele>92.0</ele><time>2026-03-26T17:42:00.998Z</time></trkpt><trkpt lat="49.011465055649936" lon="2.4796048534035844"><ele>92.0</ele><time>2026-03-26T17:42:01.998Z</time></trkpt><trkpt lat="49.011482226467535" lon="2.479410706778467"><ele>92.0</ele><time>2026-03-26T17:42:02.998Z</time></trkpt><trkpt lat="49.01150159780612" lon="2.479214325504007"><ele>92.0</ele><time>2026-03-26T17:42:03.998Z</time></trkpt><trkpt lat="49.01152498764568" lon="2.479017923143828"><ele>91.75</ele><time>2026-03-26T17:42:04.998Z</time></trkpt><trkpt lat="49.01155548141" lon="2.4788245642066475"><ele>91.5</ele><time>2026-03-26T17:42:05.998Z</time></trkpt><trkpt lat="49.011585466352734" lon="2.4786272952839785"><ele>91.25</ele><time>2026-03-26T17:42:06.998Z</time></trkpt><trkpt lat="49.01161610013704" lon="2.4784309173761407"><ele>91.0</ele><time>2026-03-26T17:42:07.998Z</time></trkpt><trkpt lat="49.01164712792244" lon="2.478234739103272"><ele>90.25</ele><time>2026-03-26T17:42:08.998Z</time></trkpt><trkpt lat="49.01168066007085" lon="2.478039824580957"><ele>89.5</ele><time>2026-03-26T17:42:09.998Z</time></trkpt><trkpt lat="49.01171733239803" lon="2.477845840907203"><ele>88.75</ele><time>2026-03-26T17:42:10.998Z</time></trkpt><trkpt lat="49.01175768706627" lon="2.477654447107933"><ele>88.0</ele><time>2026-03-26T17:42:11.998Z</time></trkpt><trkpt lat="49.011800608696845" lon="2.477464568542127"><ele>87.75</ele><time>2026-03-26T17:42:12.998Z</time></trkpt><trkpt lat="49.011847006698765" lon="2.477275720452875"><ele>87.5</ele><time>2026-03-26T17:42:14Z</time></trkpt><trkpt lat="49.01189835337561" lon="2.4770923358097456"><ele>87.25</ele><time>2026-03-26T17:42:15Z</time></trkpt><trkpt lat="49.01194768736346" lon="2.476911933680576"><ele>87.0</ele><time>2026-03-26T17:42:16Z</time></trkpt><trkpt lat="49.011997982749236" lon="2.4767304212460974"><ele>87.0</ele><time>2026-03-26T17:42:17Z</time></trkpt><trkpt lat="49.01204395264567" lon="2.4765534408349197"><ele>87.0</ele><time>2026-03-26T17:42:18Z</time></trkpt><trkpt lat="49.01208464497936" lon="2.476370488018789"><ele>87.0</ele><time>2026-03-26T17:42:19Z</time></trkpt><trkpt lat="49.01212061649939" lon="2.476187068815112"><ele>87.0</ele><time>2026-03-26T17:42:20Z</time></trkpt><trkpt lat="49.012153183698295" lon="2.4760060454557196"><ele>86.5</ele><time>2026-03-26T17:42:21Z</time></trkpt><trkpt lat="49.01218360705389" lon="2.4758237735031052"><ele>86.0</ele><time>2026-03-26T17:42:22Z</time></trkpt><trkpt lat="49.01221064247026" lon="2.4756418850811612"><ele>85.5</ele><time>2026-03-26T17:42:23Z</time></trkpt><trkpt lat="49.01223512086147" lon="2.475459499722665"><ele>85.0</ele><time>2026-03-26T17:42:24Z</time></trkpt><trkpt lat="49.012257423189965" lon="2.475272215707048"><ele>84.0</ele><time>2026-03-26T17:42:25Z</time></trkpt><trkpt lat="49.01228017152231" lon="2.4750829344699947"><ele>83.0</ele><time>2026-03-26T17:42:26Z</time></trkpt><trkpt lat="49.012302988689164" lon="2.4748921705695976"><ele>82.0</ele><time>2026-03-26T17:42:27Z</time></trkpt><trkpt lat="49.0123195957751" lon="2.474696345364528"><ele>81.0</ele><time>2026-03-26T17:42:28Z</time></trkpt><trkpt lat="49.01233356090136" lon="2.474502296498328"><ele>80.75</ele><time>2026-03-26T17:42:29Z</time></trkpt><trkpt lat="49.012344660152124" lon="2.4742999838936273"><ele>80.5</ele><time>2026-03-26T17:42:30Z</time></trkpt><trkpt lat="49.012356725628436" lon="2.4740948266880345"><ele>80.25</ele><time>2026-03-26T17:42:31Z</time></trkpt><trkpt lat="49.01237058849817" lon="2.4738984734307796"><ele>80.0</ele><time>2026-03-26T17:42:32Z</time></trkpt><trkpt lat="49.01238477173261" lon="2.473710433540819"><ele>79.0</ele><time>2026-03-26T17:42:33Z</time></trkpt><trkpt lat="49.01239876270419" lon="2.4735282925764945"><ele>78.0</ele><time>2026-03-26T17:42:34Z</time></trkpt><trkpt lat="49.01241369204072" lon="2.4733565090478224"><ele>77.0</ele><time>2026-03-26T17:42:35Z</time></trkpt><trkpt lat="49.012429232079484" lon="2.4731951435960244"><ele>76.0</ele><time>2026-03-26T17:42:36Z</time></trkpt><trkpt lat="49.01244848798101" lon="2.4730312364883664"><ele>74.39999999999999</ele><time>2026-03-26T17:42:37Z</time></trkpt><trkpt lat="49.01246932146236" lon="2.4728765484072768"><ele>72.8</ele><time>2026-03-26T17:42:38Z</time></trkpt><trkpt lat="49.01248892596171" lon="2.4727288750902865"><ele>71.19999999999999</ele><time>2026-03-26T17:42:39Z</time></trkpt><trkpt lat="49.01250761590567" lon="2.472587401307395"><ele>69.6</ele><time>2026-03-26T17:42:40Z</time></trkpt><trkpt lat="49.01252692229375" lon="2.4724547793824985"><ele>68.0</ele><time>2026-03-26T17:42:41Z</time></trkpt><trkpt lat="49.012544667933994" lon="2.472328414499281"><ele>67.66666666666667</ele><time>2026-03-26T17:42:42Z</time></trkpt><trkpt lat="49.012556626073895" lon="2.472200500428051"><ele>67.33333333333334</ele><time>2026-03-26T17:42:43Z</time></trkpt><trkpt lat="49.01256412612976" lon="2.472079170160557"><ele>67.0</ele><time>2026-03-26T17:42:44Z</time></trkpt><trkpt lat="49.01257353834731" lon="2.4719820896103255"><ele>66.66666666666667</ele><time>2026-03-26T17:42:45Z</time></trkpt><trkpt lat="49.01258979649612" lon="2.4718657643682365"><ele>66.33333333333333</ele><time>2026-03-26T17:42:47Z</time></trkpt><trkpt lat="49.01261572775955" lon="2.4717750818696733"><ele>66.0</ele><time>2026-03-26T17:42:50Z</time></trkpt><trkpt lat="49.01269042816765" lon="2.4716784246342716"><ele>65.16666666666667</ele><time>2026-03-26T17:42:52.999Z</time></trkpt><trkpt lat="49.01279047100583" lon="2.47161629898216"><ele>64.33333333333333</ele><time>2026-03-26T17:42:54.999Z</time></trkpt><trkpt lat="49.01286563526016" lon="2.4716617556965224"><ele>63.5</ele><time>2026-03-26T17:42:55.999Z</time></trkpt><trkpt lat="49.012944970902254" lon="2.4716566985560657"><ele>62.666666666666664</ele><time>2026-03-26T17:42:56.999Z</time></trkpt><trkpt lat="49.01302349390312" lon="2.471618262269046"><ele>61.83333333333333</ele><time>2026-03-26T17:42:57.999Z</time></trkpt><trkpt lat="49.01309176352147" lon="2.471562005180394"><ele>61.0</ele><time>2026-03-26T17:42:58.999Z</time></trkpt><trkpt lat="49.01315372746241" lon="2.4714520101310757"><ele>61.0</ele><time>2026-03-26T17:42:59.999Z</time></trkpt><trkpt lat="49.01319438728738" lon="2.4713192105984594"><ele>60.99999999999999</ele><time>2026-03-26T17:43:00.999Z</time></trkpt><trkpt lat="49.01321120091224" lon="2.4711823064841707"><ele>60.99999999999999</ele><time>2026-03-26T17:43:01.999Z</time></trkpt><trkpt lat="49.01319100453064" lon="2.4710357336367896"><ele>61.0</ele><time>2026-03-26T17:43:02.999Z</time></trkpt><trkpt lat="49.013138950791024" lon="2.4709214282648673"><ele>61.0</ele><time>2026-03-26T17:43:03.999Z</time></trkpt><trkpt lat="49.013082356110054" lon="2.4708205169630997"><ele>60.8</ele><time>2026-03-26T17:43:04.999Z</time></trkpt><trkpt lat="49.013005453813" lon="2.4707472105690647"><ele>60.599999999999994</ele><time>2026-03-26T17:43:05.999Z</time></trkpt><trkpt lat="49.01291662748819" lon="2.470690533767747"><ele>60.4</ele><time>2026-03-26T17:43:06.999Z</time></trkpt><trkpt lat="49.01282163431997" lon="2.470681255694068"><ele>60.2</ele><time>2026-03-26T17:43:07.999Z</time></trkpt><trkpt lat="49.01270679429784" lon="2.470582512508971"><ele>60.0</ele><time>2026-03-26T17:43:08.999Z</time></trkpt><trkpt lat="49.01261433566837" lon="2.470455018377502"><ele>59.75</ele><time>2026-03-26T17:43:09.999Z</time></trkpt><trkpt lat="49.012501134897065" lon="2.470336582252949"><ele>59.5</ele><time>2026-03-26T17:43:10.999Z</time></trkpt><trkpt lat="49.01238056203543" lon="2.4702011564599595"><ele>59.25</ele><time>2026-03-26T17:43:11.999Z</time></trkpt><trkpt lat="49.012251765913426" lon="2.4700503063158648"><ele>59.0</ele><time>2026-03-26T17:43:12.999Z</time></trkpt><trkpt lat="49.01212408765131" lon="2.469884259182116"><ele>59.0</ele><time>2026-03-26T17:43:13.999Z</time></trkpt><trkpt lat="49.011989323991806" lon="2.46970994304473"><ele>59.0</ele><time>2026-03-26T17:43:14.999Z</time></trkpt><trkpt lat="49.01185023446788" lon="2.4695327126176028"><ele>59.0</ele><time>2026-03-26T17:43:15.999Z</time></trkpt><trkpt lat="49.01170519014331" lon="2.469345660061383"><ele>58.0</ele><time>2026-03-26T17:43:16.999Z</time></trkpt><trkpt lat="49.01155697744438" lon="2.4691527744288777"><ele>57.0</ele><time>2026-03-26T17:43:17.999Z</time></trkpt><trkpt lat="49.01140517337068" lon="2.468965356237611"><ele>56.0</ele><time>2026-03-26T17:43:18.999Z</time></trkpt><trkpt lat="49.01126339756249" lon="2.4687646125888407"><ele>55.66666666666667</ele><time>2026-03-26T17:43:19.999Z</time></trkpt><trkpt lat="49.01110581668456" lon="2.4685711495608214"><ele>55.33333333333333</ele><time>2026-03-26T17:43:20.999Z</time></trkpt><trkpt lat="49.01094974107728" lon="2.4683690973736017"><ele>55.0</ele><time>2026-03-26T17:43:21.999Z</time></trkpt><trkpt lat="49.010795974933245" lon="2.468162527531758"><ele>55.0</ele><time>2026-03-26T17:43:22.999Z</time></trkpt><trkpt lat="49.01064534640252" lon="2.467952165551954"><ele>55.0</ele><time>2026-03-26T17:43:23.999Z</time></trkpt><trkpt lat="49.010491788560984" lon="2.46773957807479"><ele>55.0</ele><time>2026-03-26T17:43:24.999Z</time></trkpt><trkpt lat="49.010335600947535" lon="2.4675319611518436"><ele>56.0</ele><time>2026-03-26T17:43:25.999Z</time></trkpt><trkpt lat="49.01017758553707" lon="2.467333615827819"><ele>57.0</ele><time>2026-03-26T17:43:26.999Z</time></trkpt><trkpt lat="49.010023478717564" lon="2.4671256856861743"><ele>58.0</ele><time>2026-03-26T17:43:27.999Z</time></trkpt><trkpt lat="49.00987228519198" lon="2.4669173464069756"><ele>58.33333333333333</ele><time>2026-03-26T17:43:28.999Z</time></trkpt><trkpt lat="49.009720949977385" lon="2.466710068281094"><ele>58.66666666666667</ele><time>2026-03-26T17:43:29.999Z</time></trkpt><trkpt lat="49.00957008364875" lon="2.4664996419568324"><ele>59.0</ele><time>2026-03-26T17:43:30.999Z</time></trkpt><trkpt lat="49.009424824095866" lon="2.46629262446947"><ele>59.333333333333336</ele><time>2026-03-26T17:43:31.999Z</time></trkpt><trkpt lat="49.00928321048629" lon="2.4661023243431055"><ele>59.66666666666667</ele><time>2026-03-26T17:43:32.999Z</time></trkpt><trkpt lat="49.009154881720626" lon="2.465910376661746"><ele>60.0</ele><time>2026-03-26T17:43:33.999Z</time></trkpt><trkpt lat="49.00902816866463" lon="2.4657384149798185"><ele>60.25</ele><time>2026-03-26T17:43:34.999Z</time></trkpt><trkpt lat="49.00890977842464" lon="2.4655741649976366"><ele>60.5</ele><time>2026-03-26T17:43:35.999Z</time></trkpt><trkpt lat="49.00879770751927" lon="2.4654315404460676"><ele>60.75</ele><time>2026-03-26T17:43:36.999Z</time></trkpt><trkpt lat="49.008700396908715" lon="2.4653128178343713"><ele>61.0</ele><time>2026-03-26T17:43:37.999Z</time></trkpt><trkpt lat="49.008615538321905" lon="2.465209617947747"><ele>61.4</ele><time>2026-03-26T17:43:38.999Z</time></trkpt><trkpt lat="49.00854510378328" lon="2.46511088176076"><ele>61.8</ele><time>2026-03-26T17:43:39.999Z</time></trkpt><trkpt lat="49.008483060309345" lon="2.465001456676027"><ele>62.199999999999996</ele><time>2026-03-26T17:43:40.999Z</time></trkpt><trkpt lat="49.00844156318005" lon="2.4648520307272674"><ele>62.599999999999994</ele><time>2026-03-26T17:43:41.999Z</time></trkpt><trkpt lat="49.00833629849934" lon="2.4647824261307076"><ele>63.0</ele><time>2026-03-26T17:43:42.999Z</time></trkpt><trkpt lat="49.00822935671712" lon="2.464755793816698"><ele>63.599999999999994</ele><time>2026-03-26T17:43:43.999Z</time></trkpt><trkpt lat="49.00816417074238" lon="2.464688586846467"><ele>64.19999999999999</ele><time>2026-03-26T17:43:44.999Z</time></trkpt><trkpt lat="49.00805399535942" lon="2.464655816918925"><ele>64.8</ele><time>2026-03-26T17:43:45.999Z</time></trkpt><trkpt lat="49.00794244650853" lon="2.4645839503849496"><ele>65.39999999999999</ele><time>2026-03-26T17:43:46.999Z</time></trkpt><trkpt lat="49.00783321022999" lon="2.4644976207403"><ele>66.0</ele><time>2026-03-26T17:43:47.999Z</time></trkpt><trkpt lat="49.00770593422583" lon="2.464410853221867"><ele>66.33333333333333</ele><time>2026-03-26T17:43:48.999Z</time></trkpt><trkpt lat="49.00756751619593" lon="2.4643189274139163"><ele>66.66666666666666</ele><time>2026-03-26T17:43:49.998Z</time></trkpt><trkpt lat="49.007417485347766" lon="2.46423267682078"><ele>67.0</ele><time>2026-03-26T17:43:50.998Z</time></trkpt><trkpt lat="49.00725017293325" lon="2.4641451628374025"><ele>67.66666666666666</ele><time>2026-03-26T17:43:51.998Z</time></trkpt><trkpt lat="49.00707109458863" lon="2.464060654681392"><ele>68.33333333333333</ele><time>2026-03-26T17:43:52.998Z</time></trkpt><trkpt lat="49.00688174925714" lon="2.463988052032107"><ele>69.0</ele><time>2026-03-26T17:43:53.998Z</time></trkpt><trkpt lat="49.006685842544016" lon="2.4639300213313104"><ele>69.33333333333333</ele><time>2026-03-26T17:43:54.998Z</time></trkpt><trkpt lat="49.0064822656802" lon="2.4638866768708225"><ele>69.66666666666666</ele><time>2026-03-26T17:43:55.998Z</time></trkpt><trkpt lat="49.00627180768957" lon="2.4638609766128186"><ele>70.0</ele><time>2026-03-26T17:43:56.998Z</time></trkpt><trkpt lat="49.0060597687025" lon="2.463853085807405"><ele>70.0</ele><time>2026-03-26T17:43:57.998Z</time></trkpt><trkpt lat="49.00585847193889" lon="2.4638590920042516"><ele>70.0</ele><time>2026-03-26T17:43:58.998Z</time></trkpt><trkpt lat="49.00566554024773" lon="2.4638654839962344"><ele>70.0</ele><time>2026-03-26T17:43:59.998Z</time></trkpt><trkpt lat="49.00547447071488" lon="2.46387892389841"><ele>70.33333333333333</ele><time>2026-03-26T17:44:00.998Z</time></trkpt><trkpt lat="49.00527862738783" lon="2.463906743014258"><ele>70.66666666666667</ele><time>2026-03-26T17:44:01.998Z</time></trkpt><trkpt lat="49.00508131044122" lon="2.46394406826592"><ele>71.0</ele><time>2026-03-26T17:44:02.998Z</time></trkpt><trkpt lat="49.00488064807932" lon="2.4639878698403206"><ele>71.33333333333334</ele><time>2026-03-26T17:44:03.998Z</time></trkpt><trkpt lat="49.004679151902096" lon="2.4640201986065953"><ele>71.66666666666667</ele><time>2026-03-26T17:44:04.998Z</time></trkpt><trkpt lat="49.004475210011016" lon="2.464049265882463"><ele>72.0</ele><time>2026-03-26T17:44:05.998Z</time></trkpt><trkpt lat="49.00426965178696" lon="2.4640791987309725"><ele>72.33333333333333</ele><time>2026-03-26T17:44:06.998Z</time></trkpt><trkpt lat="49.00406027009382" lon="2.4641238263344563"><ele>72.66666666666666</ele><time>2026-03-26T17:44:07.998Z</time></trkpt><trkpt lat="49.00385925377398" lon="2.464156646729179"><ele>73.0</ele><time>2026-03-26T17:44:08.998Z</time></trkpt><trkpt lat="49.00366657582673" lon="2.4641865957289726"><ele>73.0</ele><time>2026-03-26T17:44:09.998Z</time></trkpt><trkpt lat="49.00348252723866" lon="2.4642144928785115"><ele>73.0</ele><time>2026-03-26T17:44:10.998Z</time></trkpt><trkpt lat="49.00330509093128" lon="2.464243378494164"><ele>73.0</ele><time>2026-03-26T17:44:11.998Z</time></trkpt><trkpt lat="49.00313010069671" lon="2.4642726618377497"><ele>73.66666666666666</ele><time>2026-03-26T17:44:12.998Z</time></trkpt><trkpt lat="49.00296182020718" lon="2.4642994800085085"><ele>74.33333333333333</ele><time>2026-03-26T17:44:13.998Z</time></trkpt><trkpt lat="49.00280481209101" lon="2.46432496128332"><ele>75.0</ele><time>2026-03-26T17:44:14.998Z</time></trkpt><trkpt lat="49.002665135094325" lon="2.4643476220554237"><ele>75.0</ele><time>2026-03-26T17:44:15.998Z</time></trkpt><trkpt lat="49.002529688875754" lon="2.4643689541482368"><ele>75.0</ele><time>2026-03-26T17:44:16.998Z</time></trkpt><trkpt lat="49.00240058330286" lon="2.4643877616311505"><ele>75.0</ele><time>2026-03-26T17:44:17.998Z</time></trkpt><trkpt lat="49.00228275829687" lon="2.4644066400584195"><ele>75.0</ele><time>2026-03-26T17:44:18.998Z</time></trkpt><trkpt lat="49.002182936386845" lon="2.464423838001622"><ele>75.16666666666667</ele><time>2026-03-26T17:44:20Z</time></trkpt><trkpt lat="49.0021004003701" lon="2.4644389383720116"><ele>75.33333333333333</ele><time>2026-03-26T17:44:21Z</time></trkpt><trkpt lat="49.002028384580726" lon="2.4644504495731514"><ele>75.5</ele><time>2026-03-26T17:44:22Z</time></trkpt><trkpt lat="49.001964881002415" lon="2.4644619938815433"><ele>75.66666666666666</ele><time>2026-03-26T17:44:23Z</time></trkpt><trkpt lat="49.00185137000912" lon="2.4644825503758034"><ele>75.83333333333333</ele><time>2026-03-26T17:44:25Z</time></trkpt><trkpt lat="49.00178409745636" lon="2.46449435835998"><ele>76.0</ele><time>2026-03-26T17:44:26Z</time></trkpt><trkpt lat="49.00170905257373" lon="2.464506185699935"><ele>76.2</ele><time>2026-03-26T17:44:27Z</time></trkpt><trkpt lat="49.00162891097929" lon="2.4645167138952133"><ele>76.39999999999999</ele><time>2026-03-26T17:44:28Z</time></trkpt><trkpt lat="49.001541131728096" lon="2.4645284280724646"><ele>76.6</ele><time>2026-03-26T17:44:29Z</time></trkpt><trkpt lat="49.00144530960026" lon="2.464544514705673"><ele>76.8</ele><time>2026-03-26T17:44:30Z</time></trkpt><trkpt lat="49.00134828515129" lon="2.46455801931544"><ele>77.0</ele><time>2026-03-26T17:44:31Z</time></trkpt><trkpt lat="49.00124445219795" lon="2.4645729114064463"><ele>77.0</ele><time>2026-03-26T17:44:32Z</time></trkpt><trkpt lat="49.00113298792322" lon="2.4645914625621534"><ele>77.0</ele><time>2026-03-26T17:44:33Z</time></trkpt><trkpt lat="49.00101793937692" lon="2.4646102123752995"><ele>77.0</ele><time>2026-03-26T17:44:34Z</time></trkpt><trkpt lat="49.00091035102154" lon="2.4646225892688043"><ele>77.0</ele><time>2026-03-26T17:44:35Z</time></trkpt><trkpt lat="49.000789614458355" lon="2.4646372204572287"><ele>77.25</ele><time>2026-03-26T17:44:36Z</time></trkpt><trkpt lat="49.00065801443297" lon="2.4646636344736588"><ele>77.5</ele><time>2026-03-26T17:44:37Z</time></trkpt><trkpt lat="49.000522513474955" lon="2.464688915218307"><ele>77.75</ele><time>2026-03-26T17:44:38Z</time></trkpt><trkpt lat="49.000374557620994" lon="2.4647184155555446"><ele>78.0</ele><time>2026-03-26T17:44:39Z</time></trkpt><trkpt lat="49.00021134970828" lon="2.4647411212342836"><ele>78.0</ele><time>2026-03-26T17:44:40Z</time></trkpt><trkpt lat="49.000038135612044" lon="2.4647542511252607"><ele>78.0</ele><time>2026-03-26T17:44:41Z</time></trkpt><trkpt lat="48.99986851525866" lon="2.4647592262203784"><ele>78.0</ele><time>2026-03-26T17:44:42Z</time></trkpt><trkpt lat="48.999714085612126" lon="2.4647591135027995"><ele>78.0</ele><time>2026-03-26T17:44:43Z</time></trkpt><trkpt lat="48.99956490121295" lon="2.4647483766725555"><ele>78.0</ele><time>2026-03-26T17:44:44Z</time></trkpt><trkpt lat="48.99941476396767" lon="2.4647247279067828"><ele>78.0</ele><time>2026-03-26T17:44:45Z</time></trkpt><trkpt lat="48.99926009640935" lon="2.464688282895805"><ele>77.66666666666667</ele><time>2026-03-26T17:44:46Z</time></trkpt><trkpt lat="48.99910615774955" lon="2.4646413252516126"><ele>77.33333333333334</ele><time>2026-03-26T17:44:47Z</time></trkpt><trkpt lat="48.99895186621015" lon="2.4645961843215516"><ele>77.0</ele><time>2026-03-26T17:44:48Z</time></trkpt><trkpt lat="48.998802536897394" lon="2.464537184821269"><ele>77.0</ele><time>2026-03-26T17:44:49Z</time></trkpt><trkpt lat="48.998662674859276" lon="2.4644715078291455"><ele>77.0</ele><time>2026-03-26T17:44:50Z</time></trkpt><trkpt lat="48.99852826876153" lon="2.4643974108469964"><ele>77.0</ele><time>2026-03-26T17:44:51Z</time></trkpt><trkpt lat="48.9983901186586" lon="2.464305432288339"><ele>77.0</ele><time>2026-03-26T17:44:52Z</time></trkpt><trkpt lat="48.99824379266601" lon="2.464194625103985"><ele>75.66666666666667</ele><time>2026-03-26T17:44:53Z</time></trkpt><trkpt lat="48.99809820184768" lon="2.464072626998918"><ele>74.33333333333333</ele><time>2026-03-26T17:44:54Z</time></trkpt><trkpt lat="48.99796079376209" lon="2.4639410556164614"><ele>73.0</ele><time>2026-03-26T17:44:55Z</time></trkpt><trkpt lat="48.997816644202075" lon="2.4638081027804066"><ele>73.33333333333333</ele><time>2026-03-26T17:44:56Z</time></trkpt><trkpt lat="48.99767022048411" lon="2.463684407650929"><ele>73.66666666666667</ele><time>2026-03-26T17:44:57Z</time></trkpt><trkpt lat="48.99753884150718" lon="2.4635090868603755"><ele>74.0</ele><time>2026-03-26T17:44:58Z</time></trkpt><trkpt lat="48.99740244319289" lon="2.4633297088036334"><ele>74.0</ele><time>2026-03-26T17:44:58.999Z</time></trkpt><trkpt lat="48.99726238930571" lon="2.4631288774248463"><ele>74.0</ele><time>2026-03-26T17:44:59.999Z</time></trkpt><trkpt lat="48.99712592486422" lon="2.4629070424043844"><ele>74.0</ele><time>2026-03-26T17:45:00.999Z</time></trkpt><trkpt lat="48.99698379320309" lon="2.462665925131841"><ele>74.66666666666667</ele><time>2026-03-26T17:45:01.999Z</time></trkpt><trkpt lat="48.99684181009768" lon="2.462427628023747"><ele>75.33333333333333</ele><time>2026-03-26T17:45:02.999Z</time></trkpt><trkpt lat="48.99669644617279" lon="2.462181723304"><ele>76.0</ele><time>2026-03-26T17:45:03.999Z</time></trkpt><trkpt lat="48.99655144788318" lon="2.461936219463469"><ele>76.0</ele><time>2026-03-26T17:45:04.999Z</time></trkpt><trkpt lat="48.99641242100726" lon="2.4616848510128957"><ele>76.0</ele><time>2026-03-26T17:45:05.999Z</time></trkpt><trkpt lat="48.99627764721191" lon="2.4614277872746757"><ele>76.0</ele><time>2026-03-26T17:45:06.999Z</time></trkpt><trkpt lat="48.996144519009974" lon="2.461175774749029"><ele>76.66666666666666</ele><time>2026-03-26T17:45:07.999Z</time></trkpt><trkpt lat="48.996025692888345" lon="2.4608928553827014"><ele>77.33333333333333</ele><time>2026-03-26T17:45:08.999Z</time></trkpt><trkpt lat="48.995930321722426" lon="2.460595085772358"><ele>78.0</ele><time>2026-03-26T17:45:09.999Z</time></trkpt><trkpt lat="48.99582896136176" lon="2.4602997200531376"><ele>78.0</ele><time>2026-03-26T17:45:10.999Z</time></trkpt><trkpt lat="48.99573772019604" lon="2.4599993383941854"><ele>78.0</ele><time>2026-03-26T17:45:11.999Z</time></trkpt><trkpt lat="48.99564547163336" lon="2.4596998270352874"><ele>78.0</ele><time>2026-03-26T17:45:12.999Z</time></trkpt><trkpt lat="48.995559063527075" lon="2.459420099506886"><ele>78.0</ele><time>2026-03-26T17:45:13.999Z</time></trkpt><trkpt lat="48.99546948031973" lon="2.4591381849910023"><ele>78.0</ele><time>2026-03-26T17:45:14.999Z</time></trkpt><trkpt lat="48.995377476620426" lon="2.458861119208598"><ele>78.0</ele><time>2026-03-26T17:45:15.999Z</time></trkpt><trkpt lat="48.9952847323964" lon="2.458597619691803"><ele>78.0</ele><time>2026-03-26T17:45:16.999Z</time></trkpt><trkpt lat="48.995185808749845" lon="2.4583476805643096"><ele>78.0</ele><time>2026-03-26T17:45:17.999Z</time></trkpt><trkpt lat="48.99508065332919" lon="2.4581054411566297"><ele>78.0</ele><time>2026-03-26T17:45:18.999Z</time></trkpt><trkpt lat="48.99496291683889" lon="2.457863400827667"><ele>77.33333333333333</ele><time>2026-03-26T17:45:19.999Z</time></trkpt><trkpt lat="48.99483482799503" lon="2.45764428626228"><ele>76.66666666666666</ele><time>2026-03-26T17:45:20.999Z</time></trkpt><trkpt lat="48.99472062341799" lon="2.4574190272007645"><ele>76.0</ele><time>2026-03-26T17:45:21.999Z</time></trkpt><trkpt lat="48.9945977944635" lon="2.4572047059028694"><ele>76.33333333333333</ele><time>2026-03-26T17:45:22.999Z</time></trkpt><trkpt lat="48.994462843878985" lon="2.4569950235964515"><ele>76.66666666666667</ele><time>2026-03-26T17:45:23.999Z</time></trkpt><trkpt lat="48.9943226072204" lon="2.4567963489774236"><ele>77.0</ele><time>2026-03-26T17:45:24.999Z</time></trkpt><trkpt lat="48.99419024625166" lon="2.4566142359385412"><ele>77.0</ele><time>2026-03-26T17:45:25.999Z</time></trkpt><trkpt lat="48.99405876600853" lon="2.456429606803315"><ele>77.0</ele><time>2026-03-26T17:45:26.999Z</time></trkpt><trkpt lat="48.993928420752354" lon="2.4562441223376217"><ele>77.0</ele><time>2026-03-26T17:45:27.999Z</time></trkpt><trkpt lat="48.993807538393725" lon="2.4560663305690533"><ele>77.0</ele><time>2026-03-26T17:45:28.999Z</time></trkpt><trkpt lat="48.99369856971015" lon="2.45590722507073"><ele>77.0</ele><time>2026-03-26T17:45:29.999Z</time></trkpt><trkpt lat="48.99359210170347" lon="2.455754728446141"><ele>77.0</ele><time>2026-03-26T17:45:30.999Z</time></trkpt><trkpt lat="48.99349958730265" lon="2.455616705211699"><ele>77.0</ele><time>2026-03-26T17:45:31.999Z</time></trkpt><trkpt lat="48.99341096168368" lon="2.4554920740289727"><ele>76.2</ele><time>2026-03-26T17:45:32.999Z</time></trkpt><trkpt lat="48.99333478045473" lon="2.4553843418753374"><ele>75.4</ele><time>2026-03-26T17:45:33.999Z</time></trkpt><trkpt lat="48.993279639174325" lon="2.455299662921035"><ele>74.6</ele><time>2026-03-26T17:45:34.999Z</time></trkpt><trkpt lat="48.99320377380668" lon="2.4551968997482025"><ele>73.8</ele><time>2026-03-26T17:45:36.999Z</time></trkpt><trkpt lat="48.993162596387435" lon="2.4551158591045485"><ele>73.0</ele><time>2026-03-26T17:45:39.999Z</time></trkpt><trkpt lat="48.993147934918156" lon="2.45495977589232"><ele>73.0</ele><time>2026-03-26T17:45:43.999Z</time></trkpt><trkpt lat="48.99319593770413" lon="2.4547474871958817"><ele>73.0</ele><time>2026-03-26T17:45:45.999Z</time></trkpt><trkpt lat="48.99324674492355" lon="2.454626372058302"><ele>73.0</ele><time>2026-03-26T17:45:46.999Z</time></trkpt><trkpt lat="48.99331290946227" lon="2.454494730170774"><ele>73.0</ele><time>2026-03-26T17:45:47.999Z</time></trkpt><trkpt lat="48.99338713896329" lon="2.454367110525849"><ele>73.0</ele><time>2026-03-26T17:45:48.999Z</time></trkpt><trkpt lat="48.993464545340316" lon="2.4542173065924024"><ele>73.0</ele><time>2026-03-26T17:45:49.999Z</time></trkpt><trkpt lat="48.99354913322787" lon="2.4540667208882976"><ele>73.0</ele><time>2026-03-26T17:45:50.999Z</time></trkpt><trkpt lat="48.9936454052269" lon="2.453903389904665"><ele>73.0</ele><time>2026-03-26T17:45:51.999Z</time></trkpt><trkpt lat="48.9937455156311" lon="2.453729880404921"><ele>72.25</ele><time>2026-03-26T17:45:52.999Z</time></trkpt><trkpt lat="48.993832274364436" lon="2.4535832975979277"><ele>71.5</ele><time>2026-03-26T17:45:53.999Z</time></trkpt><trkpt lat="48.99391791041337" lon="2.4534383181495154"><ele>70.75</ele><time>2026-03-26T17:45:54.999Z</time></trkpt><trkpt lat="48.99400443155421" lon="2.45328787033731"><ele>70.0</ele><time>2026-03-26T17:45:55.999Z</time></trkpt><trkpt lat="48.99409078383335" lon="2.4531496548986182"><ele>70.0</ele><time>2026-03-26T17:45:56.998Z</time></trkpt><trkpt lat="48.99417115495259" lon="2.453028881807826"><ele>70.0</ele><time>2026-03-26T17:45:57.998Z</time></trkpt><trkpt lat="48.99425141875538" lon="2.4529166455518268"><ele>70.0</ele><time>2026-03-26T17:45:58.998Z</time></trkpt><trkpt lat="48.99433053733007" lon="2.4527971769151344"><ele>70.0</ele><time>2026-03-26T17:45:59.998Z</time></trkpt><trkpt lat="48.99440145695342" lon="2.452680500005671"><ele>70.0</ele><time>2026-03-26T17:46:00.998Z</time></trkpt><trkpt lat="48.99446471569032" lon="2.4525688607565495"><ele>70.0</ele><time>2026-03-26T17:46:01.998Z</time></trkpt><trkpt lat="48.994521111373004" lon="2.452459043577299"><ele>70.0</ele><time>2026-03-26T17:46:02.998Z</time></trkpt><trkpt lat="48.99456784436601" lon="2.452356549535911"><ele>70.0</ele><time>2026-03-26T17:46:03.998Z</time></trkpt><trkpt lat="48.99460452102992" lon="2.4522678334601444"><ele>70.0</ele><time>2026-03-26T17:46:04.998Z</time></trkpt><trkpt lat="48.99463845427477" lon="2.452177495942428"><ele>70.0</ele><time>2026-03-26T17:46:05.998Z</time></trkpt><trkpt lat="48.99467896845707" lon="2.452091750647462"><ele>70.0</ele><time>2026-03-26T17:46:06.998Z</time></trkpt><trkpt lat="48.99471980232666" lon="2.4519987565192625"><ele>70.0</ele><time>2026-03-26T17:46:07.998Z</time></trkpt><trkpt lat="48.99479485582295" lon="2.4519409638428367"><ele>70.0</ele><time>2026-03-26T17:46:08.998Z</time></trkpt><trkpt lat="48.99482803675844" lon="2.451846496701276"><ele>70.0</ele><time>2026-03-26T17:46:09.998Z</time></trkpt><trkpt lat="48.99484123788132" lon="2.4517332593920718"><ele>70.0</ele><time>2026-03-26T17:46:10.998Z</time></trkpt><trkpt lat="48.994837290828286" lon="2.4516167808227007"><ele>70.0</ele><time>2026-03-26T17:46:11.998Z</time></trkpt><trkpt lat="48.99482743575118" lon="2.451494331367785"><ele>70.0</ele><time>2026-03-26T17:46:12.998Z</time></trkpt><trkpt lat="48.99483639648069" lon="2.451376165727215"><ele>69.6</ele><time>2026-03-26T17:46:13.998Z</time></trkpt><trkpt lat="48.994862592383164" lon="2.451255824483452"><ele>69.2</ele><time>2026-03-26T17:46:14.998Z</time></trkpt><trkpt lat="48.99488605486836" lon="2.4511200560768"><ele>68.8</ele><time>2026-03-26T17:46:15.998Z</time></trkpt><trkpt lat="48.99491134222837" lon="2.4509668569830745"><ele>68.4</ele><time>2026-03-26T17:46:16.998Z</time></trkpt><trkpt lat="48.99493303481021" lon="2.450790986927611"><ele>68.0</ele><time>2026-03-26T17:46:17.998Z</time></trkpt><trkpt lat="48.9949575463832" lon="2.450606263662472"><ele>68.25</ele><time>2026-03-26T17:46:18.998Z</time></trkpt><trkpt lat="48.99497116387902" lon="2.450424717022042"><ele>68.5</ele><time>2026-03-26T17:46:19.998Z</time></trkpt><trkpt lat="48.99497641532484" lon="2.450251374991693"><ele>68.75</ele><time>2026-03-26T17:46:20.998Z</time></trkpt><trkpt lat="48.99497939757954" lon="2.4500766573527692"><ele>69.0</ele><time>2026-03-26T17:46:21.998Z</time></trkpt><trkpt lat="48.99498058137607" lon="2.449897757911933"><ele>69.0</ele><time>2026-03-26T17:46:22.998Z</time></trkpt><trkpt lat="48.99497598858539" lon="2.449715360209097"><ele>69.0</ele><time>2026-03-26T17:46:23.998Z</time></trkpt><trkpt lat="48.99496172745751" lon="2.4495256890066965"><ele>69.0</ele><time>2026-03-26T17:46:24.998Z</time></trkpt><trkpt lat="48.99494120764046" lon="2.449332967338563"><ele>69.0</ele><time>2026-03-26T17:46:26Z</time></trkpt><trkpt lat="48.99491496088284" lon="2.4491469830010257"><ele>69.0</ele><time>2026-03-26T17:46:27Z</time></trkpt><trkpt lat="48.99488763773055" lon="2.4489603598533356"><ele>69.0</ele><time>2026-03-26T17:46:28Z</time></trkpt><trkpt lat="48.99486061167818" lon="2.448778391798802"><ele>69.0</ele><time>2026-03-26T17:46:29Z</time></trkpt><trkpt lat="48.99483233267641" lon="2.4485967103812083"><ele>69.0</ele><time>2026-03-26T17:46:30Z</time></trkpt><trkpt lat="48.994804030051576" lon="2.448416853765997"><ele>69.5</ele><time>2026-03-26T17:46:31Z</time></trkpt><trkpt lat="48.99477386669506" lon="2.448242573422424"><ele>70.0</ele><time>2026-03-26T17:46:32Z</time></trkpt><trkpt lat="48.99474968820569" lon="2.4480649542942623"><ele>70.5</ele><time>2026-03-26T17:46:33Z</time></trkpt><trkpt lat="48.99472588476554" lon="2.4478862496767797"><ele>71.0</ele><time>2026-03-26T17:46:34Z</time></trkpt><trkpt lat="48.994701285064004" lon="2.447708135936102"><ele>71.25</ele><time>2026-03-26T17:46:35Z</time></trkpt><trkpt lat="48.994674052005564" lon="2.44753010718569"><ele>71.5</ele><time>2026-03-26T17:46:36Z</time></trkpt><trkpt lat="48.994645548899264" lon="2.447353342414713"><ele>71.75</ele><time>2026-03-26T17:46:37Z</time></trkpt><trkpt lat="48.994611983821706" lon="2.447168092166359"><ele>72.0</ele><time>2026-03-26T17:46:38Z</time></trkpt><trkpt lat="48.99458249398381" lon="2.4469782467679937"><ele>72.25</ele><time>2026-03-26T17:46:39Z</time></trkpt><trkpt lat="48.994555043753266" lon="2.446785255632282"><ele>72.5</ele><time>2026-03-26T17:46:40Z</time></trkpt><trkpt lat="48.994526652286545" lon="2.4465924779663295"><ele>72.75</ele><time>2026-03-26T17:46:41Z</time></trkpt><trkpt lat="48.994495769295646" lon="2.44639641131105"><ele>73.0</ele><time>2026-03-26T17:46:42Z</time></trkpt><trkpt lat="48.99446443479499" lon="2.446199653477978"><ele>73.0</ele><time>2026-03-26T17:46:43Z</time></trkpt><trkpt lat="48.994433064910126" lon="2.4460018322104187"><ele>73.0</ele><time>2026-03-26T17:46:44Z</time></trkpt><trkpt lat="48.99440172520201" lon="2.445806754612436"><ele>73.0</ele><time>2026-03-26T17:46:45Z</time></trkpt><trkpt lat="48.99437158941058" lon="2.4456092801899763"><ele>73.0</ele><time>2026-03-26T17:46:46Z</time></trkpt><trkpt lat="48.99434154470159" lon="2.4454120822576684"><ele>73.0</ele><time>2026-03-26T17:46:47Z</time></trkpt><trkpt lat="48.99430743477806" lon="2.445216410756896"><ele>73.0</ele><time>2026-03-26T17:46:48Z</time></trkpt><trkpt lat="48.994270834838524" lon="2.445020421093677"><ele>73.0</ele><time>2026-03-26T17:46:49Z</time></trkpt><trkpt lat="48.99423134876022" lon="2.444829406710493"><ele>73.0</ele><time>2026-03-26T17:46:50Z</time></trkpt><trkpt lat="48.99418518860522" lon="2.444639915380635"><ele>72.75</ele><time>2026-03-26T17:46:51Z</time></trkpt><trkpt lat="48.994132150378476" lon="2.4444555346176347"><ele>72.5</ele><time>2026-03-26T17:46:52Z</time></trkpt><trkpt lat="48.994071056717566" lon="2.4442756464656203"><ele>72.25</ele><time>2026-03-26T17:46:53Z</time></trkpt><trkpt lat="48.994006165656046" lon="2.44410084880076"><ele>72.0</ele><time>2026-03-26T17:46:54Z</time></trkpt><trkpt lat="48.993936644725316" lon="2.443931578198211"><ele>72.0</ele><time>2026-03-26T17:46:55Z</time></trkpt><trkpt lat="48.99386315296838" lon="2.443774511838848"><ele>72.0</ele><time>2026-03-26T17:46:56Z</time></trkpt><trkpt lat="48.99379059761201" lon="2.443624920664115"><ele>72.0</ele><time>2026-03-26T17:46:57Z</time></trkpt><trkpt lat="48.99371667306171" lon="2.443482474870188"><ele>72.0</ele><time>2026-03-26T17:46:58Z</time></trkpt><trkpt lat="48.99364261103075" lon="2.44334751200971"><ele>72.0</ele><time>2026-03-26T17:46:59Z</time></trkpt><trkpt lat="48.99357005494681" lon="2.443219884308917"><ele>72.0</ele><time>2026-03-26T17:47:00Z</time></trkpt><trkpt lat="48.99350185002226" lon="2.4431016434122395"><ele>72.0</ele><time>2026-03-26T17:47:01Z</time></trkpt><trkpt lat="48.993434093063456" lon="2.4429900797588857"><ele>72.0</ele><time>2026-03-26T17:47:02Z</time></trkpt><trkpt lat="48.9933766231333" lon="2.442887025222907"><ele>72.0</ele><time>2026-03-26T17:47:03Z</time></trkpt><trkpt lat="48.993332810192086" lon="2.442780464598404"><ele>72.16666666666667</ele><time>2026-03-26T17:47:04Z</time></trkpt><trkpt lat="48.993302270378045" lon="2.4426622458991636"><ele>72.33333333333333</ele><time>2026-03-26T17:47:04.999Z</time></trkpt><trkpt lat="48.99326288013961" lon="2.442561069392203"><ele>72.5</ele><time>2026-03-26T17:47:05.999Z</time></trkpt><trkpt lat="48.99319932545877" lon="2.4424893658261353"><ele>72.66666666666666</ele><time>2026-03-26T17:47:06.999Z</time></trkpt><trkpt lat="48.99311571879468" lon="2.4424452869313797"><ele>72.83333333333333</ele><time>2026-03-26T17:47:07.999Z</time></trkpt><trkpt lat="48.993026822681166" lon="2.4424021639559443"><ele>73.0</ele><time>2026-03-26T17:47:08.999Z</time></trkpt><trkpt lat="48.99294846455358" lon="2.442320303556358"><ele>73.0</ele><time>2026-03-26T17:47:09.999Z</time></trkpt><trkpt lat="48.99287470921013" lon="2.4422089388685304"><ele>73.0</ele><time>2026-03-26T17:47:10.999Z</time></trkpt><trkpt lat="48.99279242351959" lon="2.4421037119563116"><ele>73.0</ele><time>2026-03-26T17:47:11.999Z</time></trkpt><trkpt lat="48.99270140786507" lon="2.441990699719047"><ele>73.0</ele><time>2026-03-26T17:47:12.999Z</time></trkpt><trkpt lat="48.99260228258816" lon="2.441859387422877"><ele>72.0</ele><time>2026-03-26T17:47:13.999Z</time></trkpt><trkpt lat="48.99250573582865" lon="2.441727093988388"><ele>71.0</ele><time>2026-03-26T17:47:14.999Z</time></trkpt><trkpt lat="48.99241591092421" lon="2.4415930682117932"><ele>70.0</ele><time>2026-03-26T17:47:15.999Z</time></trkpt><trkpt lat="48.992339149486575" lon="2.441457433198392"><ele>69.0</ele><time>2026-03-26T17:47:16.999Z</time></trkpt><trkpt lat="48.992272410362034" lon="2.4413124319910753"><ele>68.75</ele><time>2026-03-26T17:47:17.999Z</time></trkpt><trkpt lat="48.992210880721196" lon="2.441156820905641"><ele>68.5</ele><time>2026-03-26T17:47:18.999Z</time></trkpt><trkpt lat="48.99215815296131" lon="2.440991151201792"><ele>68.25</ele><time>2026-03-26T17:47:19.999Z</time></trkpt><trkpt lat="48.992118049000446" lon="2.4408165580387813"><ele>68.0</ele><time>2026-03-26T17:47:20.999Z</time></trkpt><trkpt lat="48.99208860044287" lon="2.4406353044939526"><ele>67.25</ele><time>2026-03-26T17:47:21.999Z</time></trkpt><trkpt lat="48.99207208847441" lon="2.4404515386420735"><ele>66.5</ele><time>2026-03-26T17:47:22.999Z</time></trkpt><trkpt lat="48.99206077763369" lon="2.4402774631784356"><ele>65.75</ele><time>2026-03-26T17:47:23.999Z</time></trkpt><trkpt lat="48.99205719493622" lon="2.440109311874474"><ele>65.0</ele><time>2026-03-26T17:47:24.999Z</time></trkpt><trkpt lat="48.9920541949061" lon="2.439936807318489"><ele>65.0</ele><time>2026-03-26T17:47:25.999Z</time></trkpt><trkpt lat="48.99203899723985" lon="2.439755074171572"><ele>65.0</ele><time>2026-03-26T17:47:26.999Z</time></trkpt><trkpt lat="48.99201248404651" lon="2.439573406539935"><ele>65.0</ele><time>2026-03-26T17:47:27.999Z</time></trkpt><trkpt lat="48.99197865280293" lon="2.439389388863836"><ele>65.0</ele><time>2026-03-26T17:47:28.999Z</time></trkpt><trkpt lat="48.99193367635049" lon="2.439214989835917"><ele>64.25</ele><time>2026-03-26T17:47:29.999Z</time></trkpt><trkpt lat="48.991881029864814" lon="2.439057445882545"><ele>63.5</ele><time>2026-03-26T17:47:30.999Z</time></trkpt><trkpt lat="48.99180978459724" lon="2.438904509367299"><ele>62.75</ele><time>2026-03-26T17:47:31.999Z</time></trkpt><trkpt lat="48.99171433458776" lon="2.438759490227675"><ele>62.0</ele><time>2026-03-26T17:47:32.999Z</time></trkpt><trkpt lat="48.99161944006205" lon="2.438626861557339"><ele>61.25</ele><time>2026-03-26T17:47:33.999Z</time></trkpt><trkpt lat="48.99151829990474" lon="2.4385102697070917"><ele>60.5</ele><time>2026-03-26T17:47:34.999Z</time></trkpt><trkpt lat="48.99141840656675" lon="2.43840234848883"><ele>59.75</ele><time>2026-03-26T17:47:35.999Z</time></trkpt><trkpt lat="48.99131549034607" lon="2.438292903811612"><ele>59.0</ele><time>2026-03-26T17:47:36.999Z</time></trkpt><trkpt lat="48.991214067331384" lon="2.438174078817542"><ele>59.0</ele><time>2026-03-26T17:47:37.999Z</time></trkpt><trkpt lat="48.991112717203116" lon="2.4380516285571194"><ele>59.0</ele><time>2026-03-26T17:47:38.999Z</time></trkpt><trkpt lat="48.99101543681472" lon="2.4379247782105438"><ele>59.0</ele><time>2026-03-26T17:47:39.999Z</time></trkpt><trkpt lat="48.99092810222071" lon="2.4377870683614264"><ele>59.0</ele><time>2026-03-26T17:47:40.999Z</time></trkpt><trkpt lat="48.99084399056515" lon="2.4376319842938194"><ele>58.75</ele><time>2026-03-26T17:47:41.999Z</time></trkpt><trkpt lat="48.99076405845719" lon="2.4374739317204837"><ele>58.5</ele><time>2026-03-26T17:47:42.999Z</time></trkpt><trkpt lat="48.99069140034662" lon="2.437313227694444"><ele>58.25</ele><time>2026-03-26T17:47:43.999Z</time></trkpt><trkpt lat="48.99062671313474" lon="2.437152868618262"><ele>58.0</ele><time>2026-03-26T17:47:44.999Z</time></trkpt><trkpt lat="48.990570011541934" lon="2.4369876963615424"><ele>58.5</ele><time>2026-03-26T17:47:45.999Z</time></trkpt><trkpt lat="48.99051914104647" lon="2.4368203260626675"><ele>59.0</ele><time>2026-03-26T17:47:46.999Z</time></trkpt><trkpt lat="48.99047030284746" lon="2.436649467138969"><ele>59.5</ele><time>2026-03-26T17:47:47.999Z</time></trkpt><trkpt lat="48.990432022769696" lon="2.436482473720395"><ele>60.0</ele><time>2026-03-26T17:47:48.999Z</time></trkpt><trkpt lat="48.99040129092587" lon="2.436314848524487"><ele>60.6</ele><time>2026-03-26T17:47:49.999Z</time></trkpt><trkpt lat="48.990382670162475" lon="2.4361401368592728"><ele>61.2</ele><time>2026-03-26T17:47:50.999Z</time></trkpt><trkpt lat="48.9903748318352" lon="2.435973895183925"><ele>61.8</ele><time>2026-03-26T17:47:51.999Z</time></trkpt><trkpt lat="48.99037870988758" lon="2.435804191285867"><ele>62.4</ele><time>2026-03-26T17:47:52.999Z</time></trkpt><trkpt lat="48.990392942243496" lon="2.435642427101697"><ele>63.0</ele><time>2026-03-26T17:47:53.999Z</time></trkpt><trkpt lat="48.990419275189836" lon="2.4354845479088487"><ele>63.8</ele><time>2026-03-26T17:47:54.999Z</time></trkpt><trkpt lat="48.99044702066412" lon="2.435332801266938"><ele>64.6</ele><time>2026-03-26T17:47:55.999Z</time></trkpt><trkpt lat="48.99047976742213" lon="2.4351735737235445"><ele>65.4</ele><time>2026-03-26T17:47:56.999Z</time></trkpt><trkpt lat="48.99052239657335" lon="2.435018667800715"><ele>66.2</ele><time>2026-03-26T17:47:57.999Z</time></trkpt><trkpt lat="48.99057311965902" lon="2.4348712453582495"><ele>67.0</ele><time>2026-03-26T17:47:58.999Z</time></trkpt><trkpt lat="48.99063118358895" lon="2.4347306314049297"><ele>67.0</ele><time>2026-03-26T17:47:59.999Z</time></trkpt><trkpt lat="48.99069964190707" lon="2.4345963157545154"><ele>67.0</ele><time>2026-03-26T17:48:00.999Z</time></trkpt><trkpt lat="48.990776926939965" lon="2.4344643621488666"><ele>67.0</ele><time>2026-03-26T17:48:01.999Z</time></trkpt><trkpt lat="48.990859144504626" lon="2.4343397252936643"><ele>67.0</ele><time>2026-03-26T17:48:02.999Z</time></trkpt><trkpt lat="48.99093289215336" lon="2.4342190264025643"><ele>67.0</ele><time>2026-03-26T17:48:03.998Z</time></trkpt><trkpt lat="48.990997975031526" lon="2.434108687008059"><ele>67.0</ele><time>2026-03-26T17:48:04.998Z</time></trkpt><trkpt lat="48.99105918360131" lon="2.434010112325882"><ele>67.0</ele><time>2026-03-26T17:48:05.998Z</time></trkpt><trkpt lat="48.991118194396634" lon="2.4339131807156726"><ele>67.0</ele><time>2026-03-26T17:48:06.998Z</time></trkpt><trkpt lat="48.99117732457537" lon="2.433820450584733"><ele>67.0</ele><time>2026-03-26T17:48:07.998Z</time></trkpt><trkpt lat="48.991223798775955" lon="2.4337395889322173"><ele>67.0</ele><time>2026-03-26T17:48:08.998Z</time></trkpt><trkpt lat="48.9912716249071" lon="2.4336576131619223"><ele>67.16666666666666</ele><time>2026-03-26T17:48:09.998Z</time></trkpt><trkpt lat="48.99132720079977" lon="2.433570174419476"><ele>67.33333333333333</ele><time>2026-03-26T17:48:10.998Z</time></trkpt><trkpt lat="48.991376384440535" lon="2.4334931872062167"><ele>67.5</ele><time>2026-03-26T17:48:11.998Z</time></trkpt><trkpt lat="48.991426893722064" lon="2.4334095809420413"><ele>67.66666666666667</ele><time>2026-03-26T17:48:12.998Z</time></trkpt><trkpt lat="48.99147484751083" lon="2.433330678159705"><ele>67.83333333333334</ele><time>2026-03-26T17:48:13.998Z</time></trkpt><trkpt lat="48.99153925982734" lon="2.433225649271762"><ele>68.0</ele><time>2026-03-26T17:48:15.998Z</time></trkpt><trkpt lat="48.99159495375211" lon="2.4331548715155145"><ele>68.0</ele><time>2026-03-26T17:48:18.998Z</time></trkpt><trkpt lat="48.99150796750845" lon="2.432979552250791"><ele>68.0</ele><time>2026-03-26T17:48:27.998Z</time></trkpt><trkpt lat="48.99146140831818" lon="2.4329128481413957"><ele>68.0</ele><time>2026-03-26T17:48:29.998Z</time></trkpt><trkpt lat="48.99141733687978" lon="2.4328231220276875"><ele>68.0</ele><time>2026-03-26T17:48:32Z</time></trkpt><trkpt lat="48.99134833659781" lon="2.4327061905658787"><ele>68.0</ele><time>2026-03-26T17:48:34Z</time></trkpt><trkpt lat="48.99124712353803" lon="2.4326141891713116"><ele>68.16666666666667</ele><time>2026-03-26T17:48:36Z</time></trkpt><trkpt lat="48.991155739603" lon="2.432587126286435"><ele>68.33333333333334</ele><time>2026-03-26T17:48:38Z</time></trkpt><trkpt lat="48.991139895465444" lon="2.4324938899111714"><ele>68.5</ele><time>2026-03-26T17:48:41Z</time></trkpt><trkpt lat="48.99118314178458" lon="2.4325771099385234"><ele>68.66666666666667</ele><time>2026-03-26T17:49:39.999Z</time></trkpt><trkpt lat="48.991278661387604" lon="2.4325120763080315"><ele>68.83333333333333</ele><time>2026-03-26T17:49:48.999Z</time></trkpt><trkpt lat="48.99132791042429" lon="2.4324283458967515"><ele>69.0</ele><time>2026-03-26T17:49:54.999Z</time></trkpt><trkpt lat="48.99137458353944" lon="2.4323584551715522"><ele>69.0</ele><time>2026-03-26T17:49:59.999Z</time></trkpt><trkpt lat="48.99136845028529" lon="2.432256690740407"><ele>69.0</ele><time>2026-03-26T17:50:04.999Z</time></trkpt><trkpt lat="48.99133990663435" lon="2.432153649458259"><ele>69.0</ele><time>2026-03-26T17:50:10.999Z</time></trkpt></trkseg></trk></gpx>